Observation data for Clyde on 02/12/2019      Previous  Date  Next       Current Mesonet Observations  Soil Data  Daily Summary Page  Observations in Plain Language
KCL2 120600Z 27013KT 09/M06 A2994 RMK A01 T00861055  RH  036%=      5-min Rain = 0
KCL2 120601Z 27015KT 09/M05 A2994 RMK A01 T00861054  RH  037%=      5-min Rain = 0
KCL2 120602Z 27013KT 09/M05 A2994 RMK A01 T00861054  RH  037%=      5-min Rain = 0
KCL2 120603Z 28014KT 09/M05 A2994 RMK A01 T00861054  RH  037%=      5-min Rain = 0
KCL2 120604Z 27015KT 09/M06 A2994 RMK A01 T00861055  RH  036%=      5-min Rain = 0
KCL2 120605Z 27014KT 09/M06 A2994 RMK A01 T00861056  RH  036%=      5-min Rain = 0
KCL2 120606Z 27016KT 09/M06 A2994 RMK A01 T00871056  RH  036%=      5-min Rain = 0
KCL2 120607Z 27016KT 09/M06 A2994 RMK A01 T00881056  RH  036%=      5-min Rain = 0
KCL2 120608Z 27019G24KT 09/M06 A2994 RMK A01 T00881058  RH  035%=      5-min Rain = 0
KCL2 120609Z 27014KT 09/M06 A2994 RMK A01 T00901057  RH  035%=      5-min Rain = 0
KCL2 120610Z 27016KT 09/M06 A2994 RMK A01 T00891056  RH  035%=      5-min Rain = 0
KCL2 120611Z 27017KT 09/M06 A2994 RMK A01 T00881056  RH  035%=      5-min Rain = 0
KCL2 120612Z 27016KT 09/M06 A2994 RMK A01 T00881057  RH  035%=      5-min Rain = 0
KCL2 120613Z 27015KT 09/M06 A2994 RMK A01 T00881055  RH  036%=      5-min Rain = 0
KCL2 120614Z 27014KT 09/M06 A2995 RMK A01 T00881055  RH  036%=      5-min Rain = 0
KCL2 120615Z 28014G19KT 09/M06 A2995 RMK A01 T00871055  RH  036%=      5-min Rain = 0
KCL2 120616Z 28014KT 09/M06 A2995 RMK A01 T00871055  RH  036%=      5-min Rain = 0
KCL2 120617Z 28015G20KT 09/M06 A2995 RMK A01 T00861055  RH  036%=      5-min Rain = 0
KCL2 120618Z 27014KT 09/M06 A2994 RMK A01 T00871057  RH  036%=      5-min Rain = 0
KCL2 120619Z 27016KT 09/M06 A2995 RMK A01 T00871056  RH  036%=      5-min Rain = 0
KCL2 120620Z 28015KT 09/M06 A2995 RMK A01 T00871057  RH  036%=      5-min Rain = 0
KCL2 120621Z 27015KT 09/M06 A2995 RMK A01 T00881057  RH  035%=      5-min Rain = 0
KCL2 120622Z 28014KT 09/M06 A2995 RMK A01 T00871055  RH  036%=      5-min Rain = 0
KCL2 120623Z 28014G19KT 09/M06 A2995 RMK A01 T00861055  RH  036%=      5-min Rain = 0
KCL2 120624Z 27016G21KT 09/M06 A2995 RMK A01 T00861056  RH  036%=      5-min Rain = 0
KCL2 120625Z 28015KT 09/M06 A2995 RMK A01 T00871056  RH  036%=      5-min Rain = 0
KCL2 120626Z 28013G18KT 09/M05 A2995 RMK A01 T00871054  RH  036%=      5-min Rain = 0
KCL2 120627Z 28017KT 09/M05 A2995 RMK A01 T00851054  RH  037%=      5-min Rain = 0
KCL2 120628Z 28014G22KT 09/M06 A2995 RMK A01 T00861056  RH  036%=      5-min Rain = 0
KCL2 120629Z 28014KT 09/M05 A2995 RMK A01 T00861054  RH  037%=      5-min Rain = 0
KCL2 120630Z 28016KT 09/M05 A2995 RMK A01 T00851054  RH  037%=      5-min Rain = 0
KCL2 120631Z 28016KT 09/M06 A2995 RMK A01 T00861055  RH  036%=      5-min Rain = 0
KCL2 120632Z 28015KT 09/M06 A2996 RMK A01 T00861055  RH  036%=      5-min Rain = 0
KCL2 120633Z 28015G21KT 09/M05 A2996 RMK A01 T00861054  RH  036%=      5-min Rain = 0
KCL2 120634Z 28014KT 09/M05 A2996 RMK A01 T00851054  RH  037%=      5-min Rain = 0
KCL2 120635Z 28016KT 09/M06 A2996 RMK A01 T00851055  RH  037%=      5-min Rain = 0
KCL2 120636Z 28014KT 09/M06 A2996 RMK A01 T00851055  RH  037%=      5-min Rain = 0
KCL2 120637Z 28016KT 09/M06 A2996 RMK A01 T00851055  RH  037%=      5-min Rain = 0
KCL2 120638Z 28015KT 09/M06 A2996 RMK A01 T00851055  RH  037%=      5-min Rain = 0
KCL2 120639Z 28012KT 08/M05 A2996 RMK A01 T00841054  RH  037%=      5-min Rain = 0
KCL2 120640Z 28016G21KT 08/M05 A2996 RMK A01 T00831053  RH  038%=      5-min Rain = 0
KCL2 120641Z 28013KT 08/M05 A2996 RMK A01 T00831054  RH  037%=      5-min Rain = 0
KCL2 120642Z 28013KT 08/M05 A2996 RMK A01 T00831053  RH  038%=      5-min Rain = 0
KCL2 120643Z 28013KT 08/M05 A2996 RMK A01 T00821053  RH  038%=      5-min Rain = 0
KCL2 120644Z 28014KT 08/M05 A2996 RMK A01 T00821053  RH  038%=      5-min Rain = 0
KCL2 120645Z 28015KT 08/M05 A2996 RMK A01 T00821052  RH  038%=      5-min Rain = 0
KCL2 120646Z 28015KT 08/M05 A2996 RMK A01 T00811053  RH  038%=      5-min Rain = 0
KCL2 120647Z 28014KT 08/M05 A2997 RMK A01 T00821053  RH  038%=      5-min Rain = 0
KCL2 120648Z 28018KT 08/M05 A2996 RMK A01 T00831054  RH  037%=      5-min Rain = 0
KCL2 120649Z 28014KT 08/M05 A2997 RMK A01 T00841054  RH  037%=      5-min Rain = 0
KCL2 120650Z 28014KT 08/M05 A2997 RMK A01 T00841053  RH  038%=      5-min Rain = 0
KCL2 120651Z 28014KT 08/M05 A2997 RMK A01 T00831054  RH  037%=      5-min Rain = 0
KCL2 120652Z 29013KT 08/M05 A2997 RMK A01 T00821052  RH  038%=      5-min Rain = 0
KCL2 120653Z 28014KT 08/M05 A2997 RMK A01 T00811053  RH  038%=      5-min Rain = 0
KCL2 120654Z 28016G21KT 08/M05 A2997 RMK A01 T00811053  RH  038%=      5-min Rain = 0
KCL2 120655Z 29016KT 08/M05 A2997 RMK A01 T00831054  RH  037%=      5-min Rain = 0
KCL2 120656Z 28021G26KT 08/M05 A2997 RMK A01 T00841054  RH  037%=      5-min Rain = 0
KCL2 120657Z 29015KT 09/M05 A2998 RMK A01 T00861054  RH  037%=      5-min Rain = 0
KCL2 120658Z 29014G20KT 09/M05 A2998 RMK A01 T00851051  RH  038%=      5-min Rain = 0
KCL2 120659Z 28017KT 08/M05 A2998 RMK A01 T00841052  RH  038%=      5-min Rain = 0
KCL2 120700Z 29017KT 09/M05 A2998 RMK A01 T00851053  RH  037%=      5-min Rain = 0
KCL2 120701Z 29014KT 09/M05 A2998 RMK A01 T00851052  RH  037%=      5-min Rain = 0
KCL2 120702Z 29017G22KT 08/M05 A2998 RMK A01 T00841052  RH  038%=      5-min Rain = 0
KCL2 120703Z 29016G21KT 08/M05 A2998 RMK A01 T00841052  RH  038%=      5-min Rain = 0
KCL2 120704Z 29015KT 08/M05 A2998 RMK A01 T00841052  RH  038%=      5-min Rain = 0
KCL2 120705Z 29015KT 08/M05 A2998 RMK A01 T00841051  RH  038%=      5-min Rain = 0
KCL2 120706Z 29018KT 08/M05 A2998 RMK A01 T00841051  RH  038%=      5-min Rain = 0
KCL2 120707Z 30014KT 08/M05 A2998 RMK A01 T00841051  RH  038%=      5-min Rain = 0
KCL2 120708Z 30014G19KT 08/M05 A2999 RMK A01 T00831050  RH  038%=      5-min Rain = 0
KCL2 120709Z 29017KT 08/M05 A2998 RMK A01 T00831050  RH  038%=      5-min Rain = 0
KCL2 120710Z 30016KT 08/M05 A2998 RMK A01 T00831051  RH  038%=      5-min Rain = 0
KCL2 120711Z 29014KT 08/M05 A2999 RMK A01 T00831050  RH  038%=      5-min Rain = 0
KCL2 120712Z 30014KT 08/M05 A2999 RMK A01 T00831049  RH  039%=      5-min Rain = 0
KCL2 120713Z 30015G20KT 08/M05 A2999 RMK A01 T00821049  RH  039%=      5-min Rain = 0
KCL2 120714Z 30017KT 08/M05 A2999 RMK A01 T00821050  RH  039%=      5-min Rain = 0
KCL2 120715Z 30016KT 08/M05 A2999 RMK A01 T00821049  RH  039%=      5-min Rain = 0
KCL2 120716Z 30016KT 08/M05 A2999 RMK A01 T00811048  RH  040%=      5-min Rain = 0
KCL2 120717Z 30013G18KT 08/M05 A30 RMK A01 T00811048  RH  040%=      5-min Rain = 0
KCL2 120718Z 29016KT 08/M05 A30 RMK A01 T00801048  RH  040%=      5-min Rain = 0
KCL2 120719Z 30015KT 08/M05 A30 RMK A01 T00801048  RH  040%=      5-min Rain = 0
KCL2 120720Z 30016KT 08/M05 A30 RMK A01 T00801047  RH  040%=      5-min Rain = 0
KCL2 120721Z 30015G20KT 08/M05 A30 RMK A01 T00791047  RH  041%=      5-min Rain = 0
KCL2 120722Z 30016KT 08/M05 A30 RMK A01 T00791046  RH  041%=      5-min Rain = 0
KCL2 120723Z 30014KT 08/M05 A30 RMK A01 T00791045  RH  041%=      5-min Rain = 0
KCL2 120724Z 30014KT 08/M04 A30 RMK A01 T00781044  RH  042%=      5-min Rain = 0
KCL2 120725Z 30014KT 08/M04 A3001 RMK A01 T00761043  RH  043%=      5-min Rain = 0
KCL2 120726Z 30014KT 08/M04 A3001 RMK A01 T00751042  RH  043%=      5-min Rain = 0
KCL2 120727Z 31015KT 08/M04 A3001 RMK A01 T00751042  RH  043%=      5-min Rain = 0
KCL2 120728Z 30016KT 08/M04 A3001 RMK A01 T00751042  RH  043%=      5-min Rain = 0
KCL2 120729Z 30015KT 08/M04 A3001 RMK A01 T00751040  RH  044%=      5-min Rain = 0
KCL2 120730Z 30013KT 08/M04 A3001 RMK A01 T00751039  RH  044%=      5-min Rain = 0
KCL2 120731Z 31013KT 07/M04 A3001 RMK A01 T00741037  RH  045%=      5-min Rain = 0
KCL2 120732Z 30014KT 07/M04 A3001 RMK A01 T00731037  RH  046%=      5-min Rain = 0
KCL2 120733Z 30015KT 07/M04 A3002 RMK A01 T00731036  RH  046%=      5-min Rain = 0
KCL2 120734Z 30014KT 07/M04 A3002 RMK A01 T00731035  RH  046%=      5-min Rain = 0
KCL2 120735Z 30015G20KT 07/M03 A3002 RMK A01 T00731034  RH  046%=      5-min Rain = 0
KCL2 120736Z 31011KT 07/M03 A3002 RMK A01 T00731032  RH  047%=      5-min Rain = 0
KCL2 120737Z 31012KT 07/M03 A3002 RMK A01 T00721031  RH  048%=      5-min Rain = 0
KCL2 120738Z 31015KT 07/M03 A3002 RMK A01 T00711029  RH  049%=      5-min Rain = 0
KCL2 120739Z 30013KT 07/M03 A3002 RMK A01 T00721026  RH  050%=      5-min Rain = 0
KCL2 120740Z 31014KT 07/M03 A3003 RMK A01 T00731025  RH  050%=      5-min Rain = 0
KCL2 120741Z 31014KT 07/M02 A3003 RMK A01 T00731022  RH  051%=      5-min Rain = 0
KCL2 120742Z 31015KT 07/M02 A3003 RMK A01 T00731020  RH  051%=      5-min Rain = 0
KCL2 120743Z 31015KT 07/M02 A3003 RMK A01 T00731018  RH  052%=      5-min Rain = 0
KCL2 120744Z 32015KT 07/M02 A3003 RMK A01 T00731016  RH  053%=      5-min Rain = 0
KCL2 120745Z 32013G18KT 07/M02 A3003 RMK A01 T00721015  RH  054%=      5-min Rain = 0
KCL2 120746Z 31015KT 07/M01 A3003 RMK A01 T00721014  RH  054%=      5-min Rain = 0
KCL2 120747Z 31013KT 07/M01 A3003 RMK A01 T00721013  RH  055%=      5-min Rain = 0
KCL2 120748Z 32012KT 07/M01 A3003 RMK A01 T00721012  RH  055%=      5-min Rain = 0
KCL2 120749Z 31012KT 07/M01 A3003 RMK A01 T00711012  RH  056%=      5-min Rain = 0
KCL2 120750Z 31013KT 07/M01 A3004 RMK A01 T00691012  RH  056%=      5-min Rain = 0
KCL2 120751Z 31013KT 07/M01 A3004 RMK A01 T00691012  RH  056%=      5-min Rain = 0
KCL2 120752Z 32012KT 07/M01 A3004 RMK A01 T00701011  RH  056%=      5-min Rain = 0
KCL2 120753Z 32015KT 07/M01 A3004 RMK A01 T00701011  RH  056%=      5-min Rain = 0
KCL2 120754Z 31011KT 07/M01 A3004 RMK A01 T00701011  RH  057%=      5-min Rain = 0
KCL2 120755Z 31012KT 07/M01 A3004 RMK A01 T00701010  RH  057%=      5-min Rain = 0
KCL2 120756Z 31013KT 07/M01 A3004 RMK A01 T00691010  RH  057%=      5-min Rain = 0
KCL2 120757Z 31012KT 07/M01 A3004 RMK A01 T00681010  RH  057%=      5-min Rain = 0
KCL2 120758Z 31012G17KT 07/M01 A3004 RMK A01 T00681009  RH  058%=      5-min Rain = 0
KCL2 120759Z 32014KT 07/M01 A3004 RMK A01 T00681008  RH  058%=      5-min Rain = 0
KCL2 120800Z 31013KT 07/M01 A3004 RMK A01 T00691008  RH  058%=      5-min Rain = 0
KCL2 120801Z 32013KT 07/M01 A3004 RMK A01 T00701008  RH  058%=      5-min Rain = 0
KCL2 120802Z 31013KT 07/M01 A3005 RMK A01 T00701007  RH  058%=      5-min Rain = 0
KCL2 120803Z 31013KT 07/M01 A3005 RMK A01 T00701006  RH  058%=      5-min Rain = 0
KCL2 120804Z 32014KT 07/M01 A3005 RMK A01 T00691006  RH  059%=      5-min Rain = 0
KCL2 120805Z 31013KT 07/M01 A3005 RMK A01 T00691005  RH  059%=      5-min Rain = 0
KCL2 120806Z 32012KT 07/M01 A3005 RMK A01 T00691005  RH  060%=      5-min Rain = 0
KCL2 120807Z 32014G19KT 07/M00 A3005 RMK A01 T00681004  RH  060%=      5-min Rain = 0
KCL2 120808Z 31014KT 07/M00 A3005 RMK A01 T00681003  RH  061%=      5-min Rain = 0
KCL2 120809Z 31013KT 07/M00 A3005 RMK A01 T00681002  RH  061%=      5-min Rain = 0
KCL2 120810Z 32013KT 07/M00 A3005 RMK A01 T00681001  RH  061%=      5-min Rain = 0
KCL2 120811Z 32013KT 07/M00 A3005 RMK A01 T00671001  RH  062%=      5-min Rain = 0
KCL2 120812Z 32015KT 07/00 A3006 RMK A01 T00670000  RH  062%=      5-min Rain = 0
KCL2 120813Z 32014KT 07/00 A3006 RMK A01 T00680001  RH  063%=      5-min Rain = 0
KCL2 120814Z 31014KT 07/00 A3006 RMK A01 T00680002  RH  063%=      5-min Rain = 0
KCL2 120815Z 32012KT 07/00 A3006 RMK A01 T00670003  RH  063%=      5-min Rain = 0
KCL2 120816Z 31014KT 07/00 A3006 RMK A01 T00680004  RH  064%=      5-min Rain = 0
KCL2 120817Z 32013KT 07/00 A3006 RMK A01 T00670003  RH  064%=      5-min Rain = 0
KCL2 120818Z 31013KT 07/00 A3006 RMK A01 T00670003  RH  064%=      5-min Rain = 0
KCL2 120819Z 32012KT 07/00 A3006 RMK A01 T00660004  RH  064%=      5-min Rain = 0
KCL2 120820Z 31011KT 07/00 A3006 RMK A01 T00660004  RH  065%=      5-min Rain = 0
KCL2 120821Z 31011KT 07/00 A3006 RMK A01 T00650004  RH  065%=      5-min Rain = 0
KCL2 120822Z 31013KT 06/00 A3006 RMK A01 T00640004  RH  065%=      5-min Rain = 0
KCL2 120823Z 32013KT 06/01 A3006 RMK A01 T00640005  RH  066%=      5-min Rain = 0
KCL2 120824Z 32012KT 07/01 A3006 RMK A01 T00650006  RH  066%=      5-min Rain = 0
KCL2 120825Z 32012KT 06/01 A3006 RMK A01 T00640006  RH  067%=      5-min Rain = 0
KCL2 120826Z 32013KT 06/01 A3006 RMK A01 T00630007  RH  067%=      5-min Rain = 0
KCL2 120827Z 32012KT 06/01 A3006 RMK A01 T00630007  RH  067%=      5-min Rain = 0
KCL2 120828Z 32014KT 06/01 A3006 RMK A01 T00630009  RH  068%=      5-min Rain = 0
KCL2 120829Z 32012KT 06/01 A3006 RMK A01 T00640010  RH  068%=      5-min Rain = 0
KCL2 120830Z 32013KT 06/01 A3006 RMK A01 T00640010  RH  069%=      5-min Rain = 0
KCL2 120831Z 32013KT 06/01 A3006 RMK A01 T00640012  RH  069%=      5-min Rain = 0
KCL2 120832Z 32012KT 06/01 A3006 RMK A01 T00640012  RH  069%=      5-min Rain = 0
KCL2 120833Z 32012KT 06/01 A3006 RMK A01 T00640012  RH  070%=      5-min Rain = 0
KCL2 120834Z 32013KT 06/01 A3006 RMK A01 T00640013  RH  070%=      5-min Rain = 0
KCL2 120835Z 33011KT 06/01 A3006 RMK A01 T00630013  RH  070%=      5-min Rain = 0
KCL2 120836Z 32012KT 06/01 A3006 RMK A01 T00630014  RH  071%=      5-min Rain = 0
KCL2 120837Z 32012G17KT 06/01 A3007 RMK A01 T00620014  RH  071%=      5-min Rain = 0
KCL2 120838Z 33015KT 06/02 A3006 RMK A01 T00620016  RH  072%=      5-min Rain = 0
KCL2 120839Z 34016KT 06/02 A3006 RMK A01 T00630018  RH  073%=      5-min Rain = 0
KCL2 120840Z 32014KT 07/02 A3007 RMK A01 T00650019  RH  073%=      5-min Rain = 0
KCL2 120841Z 33016G21KT 07/02 A3007 RMK A01 T00650019  RH  072%=      5-min Rain = 0
KCL2 120842Z 33016G21KT 07/02 A3007 RMK A01 T00650020  RH  073%=      5-min Rain = 0
KCL2 120843Z 33013KT 07/02 A3007 RMK A01 T00660020  RH  072%=      5-min Rain = 0
KCL2 120844Z 33016KT 07/02 A3007 RMK A01 T00650020  RH  073%=      5-min Rain = 0
KCL2 120845Z 33017KT 07/02 A3007 RMK A01 T00650021  RH  073%=      5-min Rain = 0
KCL2 120846Z 34015KT 07/02 A3007 RMK A01 T00650021  RH  073%=      5-min Rain = 0
KCL2 120847Z 33015KT 07/02 A3007 RMK A01 T00660022  RH  074%=      5-min Rain = 0
KCL2 120848Z 33013KT 07/02 A3007 RMK A01 T00650022  RH  074%=      5-min Rain = 0
KCL2 120849Z 33012KT 07/02 A3007 RMK A01 T00650022  RH  074%=      5-min Rain = 0
KCL2 120850Z 33013KT 06/02 A3007 RMK A01 T00640022  RH  074%=      5-min Rain = 0
KCL2 120851Z 33013KT 06/02 A3007 RMK A01 T00630022  RH  075%=      5-min Rain = 0
KCL2 120852Z 34012KT 06/02 A3007 RMK A01 T00630023  RH  075%=      5-min Rain = 0
KCL2 120853Z 34013KT 06/02 A3007 RMK A01 T00630023  RH  076%=      5-min Rain = 0
KCL2 120854Z 34011KT 06/02 A3008 RMK A01 T00630024  RH  076%=      5-min Rain = 0
KCL2 120855Z 33011KT 06/02 A3008 RMK A01 T00620023  RH  076%=      5-min Rain = 0
KCL2 120856Z 33011KT 06/02 A3008 RMK A01 T00610024  RH  077%=      5-min Rain = 0
KCL2 120857Z 34011KT 06/02 A3008 RMK A01 T00610024  RH  077%=      5-min Rain = 0
KCL2 120858Z 34011KT 06/02 A3008 RMK A01 T00600024  RH  078%=      5-min Rain = 0
KCL2 120859Z 34011KT 06/02 A3008 RMK A01 T00600024  RH  078%=      5-min Rain = 0
KCL2 120900Z 34012KT 06/03 A3008 RMK A01 T00600025  RH  078%=      5-min Rain = 0
KCL2 120901Z 34011KT 06/03 A3008 RMK A01 T00600025  RH  078%=      5-min Rain = 0
KCL2 120902Z 34010KT 06/03 A3008 RMK A01 T00600026  RH  079%=      5-min Rain = 0
KCL2 120903Z 34011KT 06/03 A3008 RMK A01 T00600025  RH  079%=      5-min Rain = 0
KCL2 120904Z 34010KT 06/03 A3008 RMK A01 T00590025  RH  079%=      5-min Rain = 0
KCL2 120905Z 34008KT 06/03 A3008 RMK A01 T00590026  RH  079%=      5-min Rain = 0
KCL2 120906Z 34009KT 06/03 A3008 RMK A01 T00590025  RH  079%=      5-min Rain = 0
KCL2 120907Z 34010KT 06/03 A3008 RMK A01 T00570025  RH  080%=      5-min Rain = 0
KCL2 120908Z 34010KT 06/03 A3009 RMK A01 T00570025  RH  080%=      5-min Rain = 0
KCL2 120909Z 34009KT 06/03 A3009 RMK A01 T00570026  RH  080%=      5-min Rain = 0
KCL2 120910Z 34009KT 06/03 A3009 RMK A01 T00570026  RH  080%=      5-min Rain = 0
KCL2 120911Z 34010KT 06/03 A3009 RMK A01 T00570025  RH  080%=      5-min Rain = 0
KCL2 120912Z 34009KT 06/03 A3009 RMK A01 T00560026  RH  081%=      5-min Rain = 0
KCL2 120913Z 34008KT 06/03 A3009 RMK A01 T00560026  RH  081%=      5-min Rain = 0
KCL2 120914Z 34008KT 06/03 A3009 RMK A01 T00550026  RH  081%=      5-min Rain = 0
KCL2 120915Z 34007KT 06/03 A3009 RMK A01 T00550025  RH  081%=      5-min Rain = 0
KCL2 120916Z 35008KT 05/03 A3009 RMK A01 T00540025  RH  082%=      5-min Rain = 0
KCL2 120917Z 34008KT 05/03 A3009 RMK A01 T00530025  RH  082%=      5-min Rain = 0
KCL2 120918Z 34007KT 05/03 A3009 RMK A01 T00530025  RH  082%=      5-min Rain = 0
KCL2 120919Z 34008KT 05/03 A3009 RMK A01 T00530025  RH  082%=      5-min Rain = 0
KCL2 120920Z 34007KT 05/03 A301 RMK A01 T00520025  RH  082%=      5-min Rain = 0
KCL2 120921Z 34009KT 05/03 A301 RMK A01 T00510025  RH  083%=      5-min Rain = 0
KCL2 120922Z 33008KT 05/03 A301 RMK A01 T00510025  RH  083%=      5-min Rain = 0
KCL2 120923Z 34007KT 05/03 A301 RMK A01 T00520025  RH  083%=      5-min Rain = 0
KCL2 120924Z 33007KT 05/03 A301 RMK A01 T00510025  RH  083%=      5-min Rain = 0
KCL2 120925Z 34007KT 05/02 A301 RMK A01 T00500024  RH  083%=      5-min Rain = 0
KCL2 120926Z 34008KT 05/03 A301 RMK A01 T00500025  RH  084%=      5-min Rain = 0
KCL2 120927Z 34007KT 05/03 A301 RMK A01 T00500025  RH  084%=      5-min Rain = 0
KCL2 120928Z 33008KT 05/03 A301 RMK A01 T00500025  RH  084%=      5-min Rain = 0
KCL2 120929Z 33008KT 05/03 A301 RMK A01 T00500025  RH  084%=      5-min Rain = 0
KCL2 120930Z 33009KT 05/03 A301 RMK A01 T00510026  RH  084%=      5-min Rain = 0
KCL2 120931Z 33009KT 05/03 A301 RMK A01 T00510025  RH  084%=      5-min Rain = 0
KCL2 120932Z 33009KT 05/03 A3011 RMK A01 T00510025  RH  084%=      5-min Rain = 0
KCL2 120933Z 33010KT 05/03 A3011 RMK A01 T00510025  RH  084%=      5-min Rain = 0
KCL2 120934Z 33008KT 05/03 A3011 RMK A01 T00510025  RH  084%=      5-min Rain = 0
KCL2 120935Z 33009KT 05/03 A3011 RMK A01 T00510025  RH  083%=      5-min Rain = 0
KCL2 120936Z 33008KT 05/03 A3011 RMK A01 T00500025  RH  084%=      5-min Rain = 0
KCL2 120937Z 33008KT 05/03 A3011 RMK A01 T00500025  RH  084%=      5-min Rain = 0
KCL2 120938Z 33008KT 05/03 A3011 RMK A01 T00500025  RH  084%=      5-min Rain = 0
KCL2 120939Z 33008KT 05/03 A3011 RMK A01 T00500025  RH  084%=      5-min Rain = 0
KCL2 120940Z 33009KT 05/03 A3011 RMK A01 T00490025  RH  084%=      5-min Rain = 0
KCL2 120941Z 33010KT 05/03 A3011 RMK A01 T00490025  RH  084%=      5-min Rain = 0
KCL2 120942Z 32010KT 05/03 A3011 RMK A01 T00490025  RH  084%=      5-min Rain = 0
KCL2 120943Z 33010KT 05/03 A3011 RMK A01 T00490025  RH  084%=      5-min Rain = 0
KCL2 120944Z 33011KT 05/03 A3011 RMK A01 T00490025  RH  084%=      5-min Rain = 0
KCL2 120945Z 33011KT 05/03 A3012 RMK A01 T00490025  RH  085%=      5-min Rain = 0
KCL2 120946Z 33012KT 05/03 A3012 RMK A01 T00490025  RH  085%=      5-min Rain = 0
KCL2 120947Z 33012KT 05/03 A3012 RMK A01 T00490025  RH  084%=      5-min Rain = 0
KCL2 120948Z 33010KT 05/02 A3012 RMK A01 T00490024  RH  084%=      5-min Rain = 0
KCL2 120949Z 33014KT 05/02 A3012 RMK A01 T00480024  RH  084%=      5-min Rain = 0
KCL2 120950Z 33012KT 05/02 A3012 RMK A01 T00480024  RH  084%=      5-min Rain = 0
KCL2 120951Z 34013KT 05/02 A3012 RMK A01 T00480024  RH  084%=      5-min Rain = 0
KCL2 120952Z 33013KT 05/02 A3012 RMK A01 T00490024  RH  084%=      5-min Rain = 0
KCL2 120953Z 33011KT 05/02 A3012 RMK A01 T00490023  RH  084%=      5-min Rain = 0
KCL2 120954Z 33014KT 05/02 A3012 RMK A01 T00490023  RH  084%=      5-min Rain = 0
KCL2 120955Z 33014G19KT 05/02 A3012 RMK A01 T00480023  RH  083%=      5-min Rain = 0
KCL2 120956Z 34015G20KT 05/02 A3012 RMK A01 T00490022  RH  083%=      5-min Rain = 0
KCL2 120957Z 34013KT 05/02 A3012 RMK A01 T00490022  RH  083%=      5-min Rain = 0
KCL2 120958Z 33014G19KT 05/02 A3012 RMK A01 T00490022  RH  083%=      5-min Rain = 0
KCL2 120959Z 34013KT 05/02 A3012 RMK A01 T00480021  RH  083%=      5-min Rain = 0
KCL2 121000Z 33011KT 05/02 A3012 RMK A01 T00480021  RH  083%=      5-min Rain = 0
KCL2 121001Z 34015KT 05/02 A3012 RMK A01 T00480021  RH  083%=      5-min Rain = 0
KCL2 121002Z 33014KT 05/02 A3012 RMK A01 T00470020  RH  083%=      5-min Rain = 0
KCL2 121003Z 33014KT 05/02 A3012 RMK A01 T00470020  RH  083%=      5-min Rain = 0
KCL2 121004Z 34011KT 05/02 A3012 RMK A01 T00470020  RH  083%=      5-min Rain = 0
KCL2 121005Z 34010KT 05/02 A3012 RMK A01 T00460019  RH  083%=      5-min Rain = 0
KCL2 121006Z 34011KT 05/02 A3012 RMK A01 T00450019  RH  083%=      5-min Rain = 0
KCL2 121007Z 34012KT 05/02 A3012 RMK A01 T00450019  RH  083%=      5-min Rain = 0
KCL2 121008Z 34012KT 05/02 A3012 RMK A01 T00450019  RH  083%=      5-min Rain = 0
KCL2 121009Z 34013KT 05/02 A3012 RMK A01 T00450019  RH  083%=      5-min Rain = 0
KCL2 121010Z 34012KT 05/02 A3012 RMK A01 T00450019  RH  083%=      5-min Rain = 0
KCL2 121011Z 34012KT 04/02 A3013 RMK A01 T00440019  RH  083%=      5-min Rain = 0
KCL2 121012Z 34012KT 04/02 A3013 RMK A01 T00440019  RH  083%=      5-min Rain = 0
KCL2 121013Z 35013KT 04/02 A3013 RMK A01 T00440018  RH  083%=      5-min Rain = 0
KCL2 121014Z 34013KT 04/02 A3013 RMK A01 T00440017  RH  083%=      5-min Rain = 0
KCL2 121015Z 34013KT 04/02 A3013 RMK A01 T00440017  RH  083%=      5-min Rain = 0
KCL2 121016Z 35013KT 04/02 A3013 RMK A01 T00430017  RH  083%=      5-min Rain = 0
KCL2 121017Z 34012KT 04/02 A3013 RMK A01 T00440017  RH  083%=      5-min Rain = 0
KCL2 121018Z 34013KT 04/02 A3013 RMK A01 T00430016  RH  083%=      5-min Rain = 0
KCL2 121019Z 34012KT 04/02 A3013 RMK A01 T00430017  RH  083%=      5-min Rain = 0
KCL2 121020Z 34012KT 04/02 A3013 RMK A01 T00430016  RH  083%=      5-min Rain = 0
KCL2 121021Z 34012KT 04/02 A3013 RMK A01 T00420016  RH  083%=      5-min Rain = 0
KCL2 121022Z 34013KT 04/02 A3013 RMK A01 T00420016  RH  083%=      5-min Rain = 0
KCL2 121023Z 33012KT 04/02 A3013 RMK A01 T00420016  RH  083%=      5-min Rain = 0
KCL2 121024Z 34012KT 04/02 A3013 RMK A01 T00420015  RH  083%=      5-min Rain = 0
KCL2 121025Z 33012KT 04/02 A3013 RMK A01 T00410015  RH  083%=      5-min Rain = 0
KCL2 121026Z 33013KT 04/02 A3014 RMK A01 T00410015  RH  083%=      5-min Rain = 0
KCL2 121027Z 34012KT 04/02 A3014 RMK A01 T00410015  RH  083%=      5-min Rain = 0
KCL2 121028Z 33012KT 04/02 A3014 RMK A01 T00410015  RH  083%=      5-min Rain = 0
KCL2 121029Z 33012KT 04/01 A3014 RMK A01 T00410014  RH  083%=      5-min Rain = 0
KCL2 121030Z 33012KT 04/01 A3014 RMK A01 T00400014  RH  083%=      5-min Rain = 0
KCL2 121031Z 33012G17KT 04/01 A3014 RMK A01 T00400014  RH  083%=      5-min Rain = 0
KCL2 121032Z 33014KT 04/01 A3014 RMK A01 T00400014  RH  083%=      5-min Rain = 0
KCL2 121033Z 33013KT 04/01 A3014 RMK A01 T00400014  RH  083%=      5-min Rain = 0
KCL2 121034Z 33013KT 04/01 A3014 RMK A01 T00400013  RH  083%=      5-min Rain = 0
KCL2 121035Z 33013KT 04/01 A3014 RMK A01 T00400013  RH  083%=      5-min Rain = 0
KCL2 121036Z 33013KT 04/01 A3014 RMK A01 T00390012  RH  083%=      5-min Rain = 0
KCL2 121037Z 33012KT 04/01 A3014 RMK A01 T00390012  RH  083%=      5-min Rain = 0
KCL2 121038Z 33013KT 04/01 A3014 RMK A01 T00380012  RH  083%=      5-min Rain = 0
KCL2 121039Z 33013KT 04/01 A3014 RMK A01 T00380011  RH  083%=      5-min Rain = 0
KCL2 121040Z 33012KT 04/01 A3014 RMK A01 T00380011  RH  083%=      5-min Rain = 0
KCL2 121041Z 33014KT 04/01 A3015 RMK A01 T00370010  RH  083%=      5-min Rain = 0
KCL2 121042Z 33013KT 04/01 A3015 RMK A01 T00370010  RH  083%=      5-min Rain = 0
KCL2 121043Z 33014KT 04/01 A3015 RMK A01 T00370010  RH  082%=      5-min Rain = 0
KCL2 121044Z 33013KT 04/01 A3015 RMK A01 T00370009  RH  082%=      5-min Rain = 0
KCL2 121045Z 33014KT 04/01 A3015 RMK A01 T00380009  RH  082%=      5-min Rain = 0
KCL2 121046Z 33013KT 04/01 A3015 RMK A01 T00370009  RH  082%=      5-min Rain = 0
KCL2 121047Z 33015KT 04/01 A3015 RMK A01 T00370008  RH  082%=      5-min Rain = 0
KCL2 121048Z 33014G19KT 04/01 A3015 RMK A01 T00360007  RH  081%=      5-min Rain = 0
KCL2 121049Z 33013KT 04/01 A3015 RMK A01 T00360007  RH  081%=      5-min Rain = 0
KCL2 121050Z 33013KT 04/01 A3015 RMK A01 T00360007  RH  081%=      5-min Rain = 0
KCL2 121051Z 33014KT 04/01 A3015 RMK A01 T00360006  RH  081%=      5-min Rain = 0
KCL2 121052Z 33014KT 04/01 A3015 RMK A01 T00360006  RH  081%=      5-min Rain = 0
KCL2 121053Z 33014KT 04/01 A3015 RMK A01 T00360006  RH  081%=      5-min Rain = 0
KCL2 121054Z 33013KT 04/01 A3015 RMK A01 T00350005  RH  081%=      5-min Rain = 0
KCL2 121055Z 33015KT 04/01 A3015 RMK A01 T00350005  RH  081%=      5-min Rain = 0
KCL2 121056Z 33016KT 03/01 A3015 RMK A01 T00340005  RH  081%=      5-min Rain = 0
KCL2 121057Z 33013KT 03/00 A3015 RMK A01 T00340004  RH  081%=      5-min Rain = 0
KCL2 121058Z 33014KT 03/00 A3015 RMK A01 T00340004  RH  081%=      5-min Rain = 0
KCL2 121059Z 33014KT 03/00 A3015 RMK A01 T00340003  RH  081%=      5-min Rain = 0
KCL2 121100Z 32017KT 03/00 A3015 RMK A01 T00330003  RH  080%=      5-min Rain = 0
KCL2 121101Z 33015KT 03/00 A3015 RMK A01 T00330001  RH  080%=      5-min Rain = 0
KCL2 121102Z 32012KT 03/00 A3015 RMK A01 T00330001  RH  080%=      5-min Rain = 0
KCL2 121103Z 32012KT 03/00 A3015 RMK A01 T00320001  RH  080%=      5-min Rain = 0
KCL2 121104Z 32013KT 03/00 A3015 RMK A01 T00310001  RH  080%=      5-min Rain = 0
KCL2 121105Z 32015KT 03/00 A3015 RMK A01 T00310001  RH  080%=      5-min Rain = 0
KCL2 121106Z 32014KT 03/00 A3015 RMK A01 T00310000  RH  080%=      5-min Rain = 0
KCL2 121107Z 32013KT 03/00 A3015 RMK A01 T00320001  RH  080%=      5-min Rain = 0
KCL2 121108Z 32015KT 03/00 A3015 RMK A01 T00310000  RH  080%=      5-min Rain = 0
KCL2 121109Z 32014KT 03/00 A3015 RMK A01 T003100-0  RH  080%=      5-min Rain = 0
KCL2 121110Z 32012KT 03/00 A3015 RMK A01 T003200-0  RH  079%=      5-min Rain = 0
KCL2 121111Z 32013KT 03/M00 A3015 RMK A01 T00311001  RH  080%=      5-min Rain = 0
KCL2 121112Z 32014KT 03/M00 A3015 RMK A01 T00311001  RH  080%=      5-min Rain = 0
KCL2 121113Z 32014KT 03/M00 A3015 RMK A01 T00311001  RH  080%=      5-min Rain = 0
KCL2 121114Z 33013KT 03/M00 A3015 RMK A01 T00301001  RH  080%=      5-min Rain = 0
KCL2 121115Z 33012KT 03/M00 A3015 RMK A01 T00301001  RH  080%=      5-min Rain = 0
KCL2 121116Z 33014KT 03/M00 A3015 RMK A01 T00301001  RH  080%=      5-min Rain = 0
KCL2 121117Z 32012KT 03/M00 A3016 RMK A01 T00291001  RH  081%=      5-min Rain = 0
KCL2 121118Z 32012KT 03/M00 A3016 RMK A01 T00291001  RH  081%=      5-min Rain = 0
KCL2 121119Z 32011KT 03/M00 A3016 RMK A01 T00281001  RH  081%=      5-min Rain = 0
KCL2 121120Z 32012KT 03/M00 A3016 RMK A01 T00281001  RH  081%=      5-min Rain = 0
KCL2 121121Z 33012G17KT 03/M00 A3016 RMK A01 T00271001  RH  081%=      5-min Rain = 0
KCL2 121122Z 32012KT 03/M00 A3016 RMK A01 T00271001  RH  082%=      5-min Rain = 0
KCL2 121123Z 32012KT 03/00 A3016 RMK A01 T002700-0  RH  082%=      5-min Rain = 0
KCL2 121124Z 32013KT 03/00 A3016 RMK A01 T00270000  RH  083%=      5-min Rain = 0
KCL2 121125Z 32014KT 03/00 A3016 RMK A01 T00270001  RH  083%=      5-min Rain = 0
KCL2 121126Z 32013KT 03/00 A3016 RMK A01 T00270001  RH  083%=      5-min Rain = 0
KCL2 121127Z 32012KT 03/00 A3016 RMK A01 T00270000  RH  082%=      5-min Rain = 0
KCL2 121128Z 32013KT 03/00 A3016 RMK A01 T002700-0  RH  082%=      5-min Rain = 0
KCL2 121129Z 32013KT 03/00 A3016 RMK A01 T002700-0  RH  082%=      5-min Rain = 0
KCL2 121130Z 32013KT 03/M00 A3016 RMK A01 T00271001  RH  082%=      5-min Rain = 0
KCL2 121131Z 32013KT 03/M00 A3016 RMK A01 T00261001  RH  082%=      5-min Rain = 0
KCL2 121132Z 32013KT 03/M00 A3016 RMK A01 T00261002  RH  082%=      5-min Rain = 0
KCL2 121133Z 32013KT 03/M00 A3016 RMK A01 T00261001  RH  082%=      5-min Rain = 0
KCL2 121134Z 32012KT 03/M00 A3016 RMK A01 T00261001  RH  082%=      5-min Rain = 0
KCL2 121135Z 32013KT 03/M00 A3016 RMK A01 T00251002  RH  082%=      5-min Rain = 0
KCL2 121136Z 32013KT 02/M00 A3016 RMK A01 T00241003  RH  082%=      5-min Rain = 0
KCL2 121137Z 32013G18KT 02/M00 A3016 RMK A01 T00241003  RH  082%=      5-min Rain = 0
KCL2 121138Z 32011KT 02/M00 A3016 RMK A01 T00241003  RH  082%=      5-min Rain = 0
KCL2 121139Z 32011KT 02/M00 A3016 RMK A01 T00241004  RH  082%=      5-min Rain = 0
KCL2 121140Z 32011KT 02/M00 A3016 RMK A01 T00241004  RH  082%=      5-min Rain = 0
KCL2 121141Z 32012KT 02/M00 A3016 RMK A01 T00231004  RH  082%=      5-min Rain = 0
KCL2 121142Z 32012G17KT 02/M00 A3016 RMK A01 T00231004  RH  082%=      5-min Rain = 0
KCL2 121143Z 32013KT 02/M00 A3017 RMK A01 T00231004  RH  082%=      5-min Rain = 0
KCL2 121144Z 33013KT 02/M00 A3017 RMK A01 T00231004  RH  082%=      5-min Rain = 0
KCL2 121145Z 32011KT 02/M01 A3017 RMK A01 T00231005  RH  082%=      5-min Rain = 0
KCL2 121146Z 32012KT 02/M01 A3017 RMK A01 T00231005  RH  082%=      5-min Rain = 0
KCL2 121147Z 32010KT 02/M01 A3017 RMK A01 T00221005  RH  082%=      5-min Rain = 0
KCL2 121148Z 32009KT 02/M01 A3017 RMK A01 T00221006  RH  082%=      5-min Rain = 0
KCL2 121149Z 32009KT 02/M01 A3017 RMK A01 T00211006  RH  082%=      5-min Rain = 0
KCL2 121150Z 33010KT 02/M01 A3017 RMK A01 T00201007  RH  082%=      5-min Rain = 0
KCL2 121151Z 34011KT 02/M01 A3018 RMK A01 T00201007  RH  082%=      5-min Rain = 0
KCL2 121152Z 33009KT 02/M01 A3018 RMK A01 T00211008  RH  081%=      5-min Rain = 0
KCL2 121153Z 34010KT 02/M01 A3018 RMK A01 T00211009  RH  081%=      5-min Rain = 0
KCL2 121154Z 34010KT 02/M01 A3018 RMK A01 T00211009  RH  081%=      5-min Rain = 0
KCL2 121155Z 33009KT 02/M01 A3018 RMK A01 T00201009  RH  081%=      5-min Rain = 0
KCL2 121156Z 33009KT 02/M01 A3018 RMK A01 T00201010  RH  081%=      5-min Rain = 0
KCL2 121157Z 33011KT 02/M01 A3018 RMK A01 T00201010  RH  081%=      5-min Rain = 0
KCL2 121158Z 33011KT 02/M01 A3018 RMK A01 T00191011  RH  081%=      5-min Rain = 0
KCL2 121159Z 33011KT 02/M01 A3018 RMK A01 T00191011  RH  081%=      5-min Rain = 0
KCL2 121200Z 33011KT 02/M01 A3018 RMK A01 T00191011  RH  081%=      5-min Rain = 0
KCL2 121201Z 33012KT 02/M01 A3018 RMK A01 T00191011  RH  080%=      5-min Rain = 0
KCL2 121202Z 33011KT 02/M01 A3019 RMK A01 T00191012  RH  080%=      5-min Rain = 0
KCL2 121203Z 33011KT 02/M01 A3019 RMK A01 T00181012  RH  080%=      5-min Rain = 0
KCL2 121204Z 33010KT 02/M01 A3019 RMK A01 T00181012  RH  080%=      5-min Rain = 0
KCL2 121205Z 33011KT 02/M01 A3019 RMK A01 T00171013  RH  080%=      5-min Rain = 0
KCL2 121206Z 33011KT 02/M01 A3019 RMK A01 T00171013  RH  080%=      5-min Rain = 0
KCL2 121207Z 33011KT 02/M01 A3019 RMK A01 T00171013  RH  080%=      5-min Rain = 0
KCL2 121208Z 33011KT 02/M01 A3019 RMK A01 T00171014  RH  080%=      5-min Rain = 0
KCL2 121209Z 33010KT 02/M01 A3019 RMK A01 T00181014  RH  080%=      5-min Rain = 0
KCL2 121210Z 33009KT 02/M01 A3019 RMK A01 T00171014  RH  080%=      5-min Rain = 0
KCL2 121211Z 33011KT 02/M02 A3019 RMK A01 T00161015  RH  080%=      5-min Rain = 0
KCL2 121212Z 33012KT 02/M02 A3019 RMK A01 T00161015  RH  080%=      5-min Rain = 0
KCL2 121213Z 33012KT 02/M02 A3019 RMK A01 T00161015  RH  080%=      5-min Rain = 0
KCL2 121214Z 33010KT 02/M02 A302 RMK A01 T00161015  RH  080%=      5-min Rain = 0
KCL2 121215Z 33011KT 02/M02 A3019 RMK A01 T00161015  RH  080%=      5-min Rain = 0
KCL2 121216Z 33012KT 02/M02 A302 RMK A01 T00151015  RH  080%=      5-min Rain = 0
KCL2 121217Z 33012KT 02/M02 A3019 RMK A01 T00151015  RH  080%=      5-min Rain = 0
KCL2 121218Z 33011KT 02/M02 A302 RMK A01 T00151015  RH  080%=      5-min Rain = 0
KCL2 121219Z 33010KT 02/M02 A302 RMK A01 T00151015  RH  080%=      5-min Rain = 0
KCL2 121220Z 33010KT 01/M02 A302 RMK A01 T00141016  RH  080%=      5-min Rain = 0
KCL2 121221Z 33011KT 01/M02 A302 RMK A01 T00141016  RH  081%=      5-min Rain = 0
KCL2 121222Z 33011KT 01/M02 A302 RMK A01 T00131016  RH  081%=      5-min Rain = 0
KCL2 121223Z 33011KT 01/M02 A302 RMK A01 T00131016  RH  081%=      5-min Rain = 0
KCL2 121224Z 33011KT 01/M02 A302 RMK A01 T00131016  RH  081%=      5-min Rain = 0
KCL2 121225Z 33010KT 01/M02 A302 RMK A01 T00131016  RH  081%=      5-min Rain = 0
KCL2 121226Z 33010KT 01/M02 A302 RMK A01 T00121017  RH  081%=      5-min Rain = 0
KCL2 121227Z 33010KT 01/M02 A302 RMK A01 T00121017  RH  081%=      5-min Rain = 0
KCL2 121228Z 33010KT 01/M02 A302 RMK A01 T00111017  RH  082%=      5-min Rain = 0
KCL2 121229Z 33010KT 01/M02 A3021 RMK A01 T00111017  RH  082%=      5-min Rain = 0
KCL2 121230Z 33010KT 01/M02 A3021 RMK A01 T00101017  RH  082%=      5-min Rain = 0
KCL2 121231Z 33011KT 01/M02 A3021 RMK A01 T00101017  RH  082%=      5-min Rain = 0
KCL2 121232Z 33011KT 01/M02 A3021 RMK A01 T00101017  RH  082%=      5-min Rain = 0
KCL2 121233Z 33011KT 01/M02 A3021 RMK A01 T00101017  RH  082%=      5-min Rain = 0
KCL2 121234Z 33010KT 01/M02 A3021 RMK A01 T00101017  RH  082%=      5-min Rain = 0
KCL2 121235Z 33010KT 01/M02 A3021 RMK A01 T00101018  RH  082%=      5-min Rain = 0
KCL2 121236Z 33009KT 01/M02 A3021 RMK A01 T00091018  RH  082%=      5-min Rain = 0
KCL2 121237Z 33010KT 01/M02 A3021 RMK A01 T00091018  RH  082%=      5-min Rain = 0
KCL2 121238Z 33011KT 01/M02 A3021 RMK A01 T00081018  RH  083%=      5-min Rain = 0
KCL2 121239Z 33010KT 01/M02 A3021 RMK A01 T00081018  RH  083%=      5-min Rain = 0
KCL2 121240Z 32010KT 01/M02 A3021 RMK A01 T00081018  RH  083%=      5-min Rain = 0
KCL2 121241Z 33010KT 01/M02 A3021 RMK A01 T00071019  RH  083%=      5-min Rain = 0
KCL2 121242Z 33010KT 01/M02 A3021 RMK A01 T00071019  RH  083%=      5-min Rain = 0
KCL2 121243Z 33010KT 01/M02 A3021 RMK A01 T00071019  RH  083%=      5-min Rain = 0
KCL2 121244Z 33010KT 01/M02 A3021 RMK A01 T00061019  RH  083%=      5-min Rain = 0
KCL2 121245Z 33010KT 01/M02 A3021 RMK A01 T00061019  RH  083%=      5-min Rain = 0
KCL2 121246Z 33011KT 01/M02 A3021 RMK A01 T00061019  RH  083%=      5-min Rain = 0
KCL2 121247Z 33011KT 01/M02 A3021 RMK A01 T00061019  RH  083%=      5-min Rain = 0
KCL2 121248Z 33010KT 01/M02 A3021 RMK A01 T00061020  RH  083%=      5-min Rain = 0
KCL2 121249Z 33011KT 01/M02 A3021 RMK A01 T00061020  RH  083%=      5-min Rain = 0
KCL2 121250Z 33010KT 01/M02 A3021 RMK A01 T00071020  RH  082%=      5-min Rain = 0
KCL2 121251Z 33011KT 01/M02 A3021 RMK A01 T00071020  RH  082%=      5-min Rain = 0
KCL2 121252Z 33011KT 01/M02 A3022 RMK A01 T00061020  RH  082%=      5-min Rain = 0
KCL2 121253Z 33010KT 01/M02 A3022 RMK A01 T00071020  RH  082%=      5-min Rain = 0
KCL2 121254Z 33009KT 01/M02 A3022 RMK A01 T00071020  RH  082%=      5-min Rain = 0
KCL2 121255Z 33009KT 01/M02 A3022 RMK A01 T00061021  RH  082%=      5-min Rain = 0
KCL2 121256Z 34008KT 01/M02 A3022 RMK A01 T00061021  RH  082%=      5-min Rain = 0
KCL2 121257Z 34007KT 01/M02 A3022 RMK A01 T00061021  RH  083%=      5-min Rain = 0
KCL2 121258Z 34007KT 01/M02 A3022 RMK A01 T00051021  RH  083%=      5-min Rain = 0
KCL2 121259Z 33007KT 00/M02 A3022 RMK A01 T00041021  RH  083%=      5-min Rain = 0
KCL2 121300Z 34007KT 00/M02 A3022 RMK A01 T00041021  RH  083%=      5-min Rain = 0
KCL2 121301Z 34006KT 00/M02 A3022 RMK A01 T00031022  RH  083%=      5-min Rain = 0
KCL2 121302Z 34006KT 00/M02 A3022 RMK A01 T00021022  RH  083%=      5-min Rain = 0
KCL2 121303Z 34005KT 00/M02 A3022 RMK A01 T00011023  RH  084%=      5-min Rain = 0
KCL2 121304Z 34006KT 00/M02 A3022 RMK A01 T00011023  RH  084%=      5-min Rain = 0
KCL2 121305Z 34005KT 00/M02 A3022 RMK A01 T00011022  RH  085%=      5-min Rain = 0
KCL2 121306Z 34005KT 00/02 A3022 RMK A01 T00000-23  RH  085%=      5-min Rain = 0
KCL2 121307Z 34005KT 00/02 A3022 RMK A01 T00-00-23  RH  085%=      5-min Rain = 0
KCL2 121308Z 33005KT 00/02 A3023 RMK A01 T00-00-23  RH  085%=      5-min Rain = 0
KCL2 121309Z 33005KT M00/M02 A3023 RMK A01 T10011024  RH  085%=      5-min Rain = 0
KCL2 121310Z 33005KT M00/M02 A3023 RMK A01 T10021024  RH  085%=      5-min Rain = 0
KCL2 121311Z 33005KT M00/M03 A3023 RMK A01 T10031025  RH  085%=      5-min Rain = 0
KCL2 121312Z 33005KT M00/M03 A3023 RMK A01 T10031025  RH  085%=      5-min Rain = 0
KCL2 121313Z 33006KT M00/M03 A3023 RMK A01 T10041026  RH  085%=      5-min Rain = 0
KCL2 121314Z 32007KT M01/M03 A3023 RMK A01 T10051026  RH  086%=      5-min Rain = 0
KCL2 121315Z 32006KT M01/M03 A3023 RMK A01 T10051026  RH  086%=      5-min Rain = 0
KCL2 121316Z 31007KT M01/M03 A3023 RMK A01 T10061026  RH  086%=      5-min Rain = 0
KCL2 121317Z 32007KT M01/M03 A3023 RMK A01 T10061025  RH  087%=      5-min Rain = 0
KCL2 121318Z 32007KT M01/M02 A3023 RMK A01 T10051024  RH  087%=      5-min Rain = 0
KCL2 121319Z 32007KT M01/M03 A3023 RMK A01 T10051025  RH  087%=      5-min Rain = 0
KCL2 121320Z 31007KT M01/M03 A3023 RMK A01 T10051025  RH  086%=      5-min Rain = 0
KCL2 121321Z 32007KT M01/M03 A3023 RMK A01 T10051025  RH  086%=      5-min Rain = 0
KCL2 121322Z 32007KT M01/M03 A3023 RMK A01 T10051025  RH  086%=      5-min Rain = 0
KCL2 121323Z 32007KT M01/M03 A3024 RMK A01 T10051025  RH  086%=      5-min Rain = 0
KCL2 121324Z 32008KT M01/M03 A3024 RMK A01 T10051025  RH  086%=      5-min Rain = 0
KCL2 121325Z 33007KT M01/M03 A3024 RMK A01 T10051025  RH  086%=      5-min Rain = 0
KCL2 121326Z 32008KT M00/M03 A3024 RMK A01 T10041025  RH  086%=      5-min Rain = 0
KCL2 121327Z 33009KT M00/M03 A3024 RMK A01 T10041025  RH  086%=      5-min Rain = 0
KCL2 121328Z 33008KT M00/M02 A3024 RMK A01 T10041024  RH  086%=      5-min Rain = 0
KCL2 121329Z 33009KT M00/M02 A3024 RMK A01 T10031024  RH  086%=      5-min Rain = 0
KCL2 121330Z 33009KT M00/M02 A3024 RMK A01 T10021024  RH  085%=      5-min Rain = 0
KCL2 121331Z 33009KT M00/M02 A3024 RMK A01 T10021024  RH  085%=      5-min Rain = 0
KCL2 121332Z 33008KT M00/M03 A3024 RMK A01 T10021025  RH  085%=      5-min Rain = 0
KCL2 121333Z 33008KT M00/M03 A3024 RMK A01 T10021025  RH  085%=      5-min Rain = 0
KCL2 121334Z 34008KT M00/M03 A3024 RMK A01 T10021025  RH  085%=      5-min Rain = 0
KCL2 121335Z 34009KT M00/M03 A3024 RMK A01 T10021025  RH  085%=      5-min Rain = 0
KCL2 121336Z 34008KT M00/M02 A3024 RMK A01 T10011024  RH  084%=      5-min Rain = 0
KCL2 121337Z 34007KT 00/02 A3024 RMK A01 T00-00-24  RH  084%=      5-min Rain = 0
KCL2 121338Z 34007KT 00/02 A3024 RMK A01 T00000-24  RH  084%=      5-min Rain = 0
KCL2 121339Z 34008KT 00/02 A3024 RMK A01 T00-00-24  RH  084%=      5-min Rain = 0
KCL2 121340Z 34008KT M00/M03 A3024 RMK A01 T10011025  RH  084%=      5-min Rain = 0
KCL2 121341Z 34008KT M00/M03 A3024 RMK A01 T10011025  RH  084%=      5-min Rain = 0
KCL2 121342Z 34008KT M00/M03 A3024 RMK A01 T10011025  RH  084%=      5-min Rain = 0
KCL2 121343Z 34008KT M00/M03 A3024 RMK A01 T10011025  RH  084%=      5-min Rain = 0
KCL2 121344Z 34008KT M00/M03 A3024 RMK A01 T10011025  RH  084%=      5-min Rain = 0
KCL2 121345Z 33008KT 00/03 A3024 RMK A01 T00-00-25  RH  084%=      5-min Rain = 0
KCL2 121346Z 33008KT 00/03 A3024 RMK A01 T00-00-25  RH  084%=      5-min Rain = 0
KCL2 121347Z 33008KT M00/M03 A3024 RMK A01 T10011025  RH  084%=      5-min Rain = 0
KCL2 121348Z 33008KT 00/03 A3024 RMK A01 T00-00-25  RH  084%=      5-min Rain = 0
KCL2 121349Z 33007KT 00/02 A3024 RMK A01 T00000-24  RH  083%=      5-min Rain = 0
KCL2 121350Z 33007KT 00/M03 A3024 RMK A01 T00011025  RH  083%=      5-min Rain = 0
KCL2 121351Z 33007KT 00/M02 A3024 RMK A01 T00011024  RH  083%=      5-min Rain = 0
KCL2 121352Z 33007KT 00/M03 A3024 RMK A01 T00021025  RH  083%=      5-min Rain = 0
KCL2 121353Z 34006KT 00/M03 A3024 RMK A01 T00021025  RH  082%=      5-min Rain = 0
KCL2 121354Z 33006KT 00/M02 A3024 RMK A01 T00031024  RH  082%=      5-min Rain = 0
KCL2 121355Z 34006KT 00/M02 A3024 RMK A01 T00031024  RH  082%=      5-min Rain = 0
KCL2 121356Z 33007KT 00/M02 A3024 RMK A01 T00041024  RH  082%=      5-min Rain = 0
KCL2 121357Z 33006KT 00/M02 A3024 RMK A01 T00041024  RH  082%=      5-min Rain = 0
KCL2 121358Z 33007KT 00/M02 A3024 RMK A01 T00041024  RH  081%=      5-min Rain = 0
KCL2 121359Z 33007KT 00/M02 A3024 RMK A01 T00041024  RH  081%=      5-min Rain = 0
KCL2 121400Z 33008KT 01/M02 A3024 RMK A01 T00051024  RH  081%=      5-min Rain = 0
KCL2 121401Z 33007KT 01/M02 A3024 RMK A01 T00051024  RH  081%=      5-min Rain = 0
KCL2 121402Z 33008KT 01/M02 A3024 RMK A01 T00061024  RH  081%=      5-min Rain = 0
KCL2 121403Z 33008KT 01/M02 A3025 RMK A01 T00061024  RH  080%=      5-min Rain = 0
KCL2 121404Z 33008KT 01/M02 A3025 RMK A01 T00061024  RH  080%=      5-min Rain = 0
KCL2 121405Z 33008KT 01/M02 A3025 RMK A01 T00061024  RH  080%=      5-min Rain = 0
KCL2 121406Z 33007KT 01/M02 A3025 RMK A01 T00071024  RH  080%=      5-min Rain = 0
KCL2 121407Z 33008KT 01/M02 A3025 RMK A01 T00071023  RH  080%=      5-min Rain = 0
KCL2 121408Z 33008KT 01/M02 A3025 RMK A01 T00081024  RH  079%=      5-min Rain = 0
KCL2 121409Z 34008KT 01/M02 A3025 RMK A01 T00081024  RH  079%=      5-min Rain = 0
KCL2 121410Z 34007KT 01/M02 A3025 RMK A01 T00091023  RH  079%=      5-min Rain = 0
KCL2 121411Z 34007KT 01/M02 A3025 RMK A01 T00091023  RH  079%=      5-min Rain = 0
KCL2 121412Z 34008KT 01/M02 A3025 RMK A01 T00101023  RH  079%=      5-min Rain = 0
KCL2 121413Z 34007KT 01/M02 A3026 RMK A01 T00111023  RH  078%=      5-min Rain = 0
KCL2 121414Z 34007KT 01/M02 A3026 RMK A01 T00111023  RH  078%=      5-min Rain = 0
KCL2 121415Z 33007KT 01/M02 A3026 RMK A01 T00111023  RH  078%=      5-min Rain = 0
KCL2 121416Z 34008KT 01/M02 A3026 RMK A01 T00121023  RH  077%=      5-min Rain = 0
KCL2 121417Z 33007KT 01/M02 A3026 RMK A01 T00121023  RH  077%=      5-min Rain = 0
KCL2 121418Z 34008KT 01/M02 A3026 RMK A01 T00121023  RH  077%=      5-min Rain = 0
KCL2 121419Z 33007KT 01/M02 A3026 RMK A01 T00121024  RH  077%=      5-min Rain = 0
KCL2 121420Z 33007KT 01/M02 A3026 RMK A01 T00131023  RH  077%=      5-min Rain = 0
KCL2 121421Z 33006KT 01/M02 A3026 RMK A01 T00131022  RH  077%=      5-min Rain = 0
KCL2 121422Z 33008KT 01/M02 A3026 RMK A01 T00141022  RH  077%=      5-min Rain = 0
KCL2 121423Z 33008KT 01/M02 A3026 RMK A01 T00141023  RH  076%=      5-min Rain = 0
KCL2 121424Z 34008KT 01/M02 A3026 RMK A01 T00141024  RH  076%=      5-min Rain = 0
KCL2 121425Z 33008KT 01/M02 A3026 RMK A01 T00141024  RH  076%=      5-min Rain = 0
KCL2 121426Z 33007KT 02/M02 A3026 RMK A01 T00151023  RH  076%=      5-min Rain = 0
KCL2 121427Z 33007KT 02/M02 A3027 RMK A01 T00151023  RH  076%=      5-min Rain = 0
KCL2 121428Z 34008KT 02/M02 A3027 RMK A01 T00161023  RH  075%=      5-min Rain = 0
KCL2 121429Z 33007KT 02/M02 A3027 RMK A01 T00161023  RH  075%=      5-min Rain = 0
KCL2 121430Z 33006KT 02/M02 A3027 RMK A01 T00171022  RH  075%=      5-min Rain = 0
KCL2 121431Z 34008KT 02/M02 A3027 RMK A01 T00181021  RH  075%=      5-min Rain = 0
KCL2 121432Z 33006KT 02/M02 A3027 RMK A01 T00181023  RH  074%=      5-min Rain = 0
KCL2 121433Z 34007KT 02/M02 A3027 RMK A01 T00191023  RH  074%=      5-min Rain = 0
KCL2 121434Z 34006KT 02/M02 A3027 RMK A01 T00181023  RH  074%=      5-min Rain = 0
KCL2 121435Z 34005KT 02/M02 A3027 RMK A01 T00191022  RH  074%=      5-min Rain = 0
KCL2 121436Z 35004KT 02/M02 A3027 RMK A01 T00201022  RH  074%=      5-min Rain = 0
KCL2 121437Z 34005KT 02/M02 A3027 RMK A01 T00201022  RH  074%=      5-min Rain = 0
KCL2 121438Z 33006KT 02/M02 A3028 RMK A01 T00221020  RH  074%=      5-min Rain = 0
KCL2 121439Z 34006KT 02/M02 A3028 RMK A01 T00221022  RH  073%=      5-min Rain = 0
KCL2 121440Z 34006KT 02/M02 A3028 RMK A01 T00231022  RH  072%=      5-min Rain = 0
KCL2 121441Z 35006KT 02/M02 A3028 RMK A01 T00231021  RH  073%=      5-min Rain = 0
KCL2 121442Z 34007KT 02/M02 A3028 RMK A01 T00231023  RH  072%=      5-min Rain = 0
KCL2 121443Z 35005KT 02/M02 A3028 RMK A01 T00231023  RH  072%=      5-min Rain = 0
KCL2 121444Z 34006KT 02/M02 A3028 RMK A01 T00231021  RH  073%=      5-min Rain = 0
KCL2 121445Z 33007KT 02/M02 A3028 RMK A01 T00241022  RH  072%=      5-min Rain = 0
KCL2 121446Z 34006KT 02/M02 A3028 RMK A01 T00241023  RH  071%=      5-min Rain = 0
KCL2 121447Z 34006KT 02/M02 A3028 RMK A01 T00241022  RH  071%=      5-min Rain = 0
KCL2 121448Z 34008KT 03/M02 A3029 RMK A01 T00251023  RH  071%=      5-min Rain = 0
KCL2 121449Z 34007KT 03/M02 A3029 RMK A01 T00251023  RH  071%=      5-min Rain = 0
KCL2 121450Z 34006KT 03/M02 A3029 RMK A01 T00251023  RH  070%=      5-min Rain = 0
KCL2 121451Z 35006KT 03/M03 A3029 RMK A01 T00251025  RH  069%=      5-min Rain = 0
KCL2 121452Z 33006KT 03/M02 A3029 RMK A01 T00261020  RH  072%=      5-min Rain = 0
KCL2 121453Z 34008KT 03/M02 A3029 RMK A01 T00291018  RH  071%=      5-min Rain = 0
KCL2 121454Z 34009KT 03/M02 A3029 RMK A01 T00291021  RH  069%=      5-min Rain = 0
KCL2 121455Z 34008KT 03/M02 A3029 RMK A01 T00281024  RH  068%=      5-min Rain = 0
KCL2 121456Z 34006KT 03/M02 A3029 RMK A01 T00281023  RH  069%=      5-min Rain = 0
KCL2 121457Z 33005KT 03/M02 A3029 RMK A01 T00281020  RH  070%=      5-min Rain = 0
KCL2 121458Z 34008KT 03/M02 A3029 RMK A01 T00301021  RH  070%=      5-min Rain = 0
KCL2 121459Z 34007KT 03/M02 A3029 RMK A01 T00301022  RH  068%=      5-min Rain = 0
KCL2 121500Z 34007KT 03/M02 A303 RMK A01 T00301021  RH  069%=      5-min Rain = 0
KCL2 121501Z 33006KT 03/M02 A303 RMK A01 T00321018  RH  070%=      5-min Rain = 0
KCL2 121502Z 33007KT 03/M02 A303 RMK A01 T00331018  RH  069%=      5-min Rain = 0
KCL2 121503Z 33008KT 03/M02 A303 RMK A01 T00341020  RH  068%=      5-min Rain = 0
KCL2 121504Z 34007KT 03/M02 A303 RMK A01 T00341021  RH  067%=      5-min Rain = 0
KCL2 121505Z 35007KT 03/M02 A303 RMK A01 T00321024  RH  067%=      5-min Rain = 0
KCL2 121506Z 33008KT 03/M02 A303 RMK A01 T00321023  RH  067%=      5-min Rain = 0
KCL2 121507Z 35009KT 03/M02 A303 RMK A01 T00331023  RH  067%=      5-min Rain = 0
KCL2 121508Z 34008KT 03/M02 A303 RMK A01 T00331024  RH  066%=      5-min Rain = 0
KCL2 121509Z 34008KT 03/M03 A3031 RMK A01 T00331025  RH  066%=      5-min Rain = 0
KCL2 121510Z 34008KT 03/M02 A3031 RMK A01 T00331024  RH  066%=      5-min Rain = 0
KCL2 121511Z 34007KT 03/M03 A3031 RMK A01 T00331025  RH  066%=      5-min Rain = 0
KCL2 121512Z 34006KT 03/M03 A3031 RMK A01 T00321029  RH  064%=      5-min Rain = 0
KCL2 121513Z 35009KT 03/M03 A3031 RMK A01 T00331025  RH  066%=      5-min Rain = 0
KCL2 121514Z 36007KT 03/M02 A3031 RMK A01 T00341023  RH  067%=      5-min Rain = 0
KCL2 121515Z 33005KT 04/M02 A3031 RMK A01 T00351022  RH  066%=      5-min Rain = 0
KCL2 121516Z 32005KT 04/M02 A3031 RMK A01 T00361022  RH  066%=      5-min Rain = 0
KCL2 121517Z 33006KT 04/M02 A3031 RMK A01 T00381020  RH  066%=      5-min Rain = 0
KCL2 121518Z 33007KT 04/M02 A3031 RMK A01 T00401020  RH  065%=      5-min Rain = 0
KCL2 121519Z 34008KT 04/M02 A3031 RMK A01 T00411022  RH  064%=      5-min Rain = 0
KCL2 121520Z 33007KT 04/M02 A3031 RMK A01 T00401024  RH  063%=      5-min Rain = 0
KCL2 121521Z 34007KT 04/M02 A3031 RMK A01 T00401022  RH  064%=      5-min Rain = 0
KCL2 121522Z 35005KT 04/M02 A3031 RMK A01 T00411022  RH  064%=      5-min Rain = 0
KCL2 121523Z 35005KT 04/M02 A3031 RMK A01 T00411020  RH  065%=      5-min Rain = 0
KCL2 121524Z 34009KT 04/M02 A3031 RMK A01 T00411021  RH  064%=      5-min Rain = 0
KCL2 121525Z 33008KT 04/M02 A3031 RMK A01 T00411022  RH  063%=      5-min Rain = 0
KCL2 121526Z 34007KT 04/M02 A3031 RMK A01 T00411023  RH  063%=      5-min Rain = 0
KCL2 121527Z 35007KT 04/M03 A3031 RMK A01 T00411025  RH  062%=      5-min Rain = 0
KCL2 121528Z 35008KT 04/M02 A3031 RMK A01 T00421023  RH  063%=      5-min Rain = 0
KCL2 121529Z 34008KT 04/M02 A3031 RMK A01 T00421024  RH  062%=      5-min Rain = 0
KCL2 121530Z 33007KT 04/M02 A3032 RMK A01 T00421022  RH  063%=      5-min Rain = 0
KCL2 121531Z 34008KT 04/M02 A3032 RMK A01 T00441020  RH  063%=      5-min Rain = 0
KCL2 121532Z 33009KT 05/M02 A3032 RMK A01 T00461022  RH  061%=      5-min Rain = 0
KCL2 121533Z 34009KT 05/M03 A3032 RMK A01 T00451028  RH  059%=      5-min Rain = 0
KCL2 121534Z 33009KT 04/M02 A3032 RMK A01 T00431024  RH  062%=      5-min Rain = 0
KCL2 121535Z 33008KT 04/M02 A3032 RMK A01 T00441022  RH  062%=      5-min Rain = 0
KCL2 121536Z 34006KT 05/M02 A3032 RMK A01 T00451024  RH  061%=      5-min Rain = 0
KCL2 121537Z 33008KT 05/M02 A3032 RMK A01 T00451024  RH  061%=      5-min Rain = 0
KCL2 121538Z 34008KT 05/M02 A3032 RMK A01 T00461022  RH  061%=      5-min Rain = 0
KCL2 121539Z 35009KT 05/M02 A3032 RMK A01 T00481024  RH  060%=      5-min Rain = 0
KCL2 121540Z 35012KT 05/M03 A3032 RMK A01 T00471025  RH  059%=      5-min Rain = 0
KCL2 121541Z 35010KT 05/M03 A3032 RMK A01 T00451028  RH  059%=      5-min Rain = 0
KCL2 121542Z 34011KT 04/M03 A3032 RMK A01 T00441028  RH  060%=      5-min Rain = 0
KCL2 121543Z 35009KT 04/M03 A3032 RMK A01 T00431027  RH  060%=      5-min Rain = 0
KCL2 121544Z 36010KT 04/M03 A3032 RMK A01 T00441026  RH  060%=      5-min Rain = 0
KCL2 121545Z 35010KT 05/M03 A3032 RMK A01 T00451026  RH  060%=      5-min Rain = 0
KCL2 121546Z 33009KT 05/M03 A3032 RMK A01 T00451026  RH  060%=      5-min Rain = 0
KCL2 121547Z 32008KT 05/M02 A3032 RMK A01 T00461023  RH  061%=      5-min Rain = 0
KCL2 121548Z 34008KT 05/M02 A3032 RMK A01 T00501020  RH  061%=      5-min Rain = 0
KCL2 121549Z 35008KT 05/M02 A3032 RMK A01 T00511022  RH  059%=      5-min Rain = 0
KCL2 121550Z 34007KT 05/M02 A3032 RMK A01 T00511020  RH  060%=      5-min Rain = 0
KCL2 121551Z 33008KT 06/M02 A3032 RMK A01 T00551017  RH  060%=      5-min Rain = 0
KCL2 121552Z 34009KT 06/M02 A3032 RMK A01 T00551020  RH  059%=      5-min Rain = 0
KCL2 121553Z 33008KT 05/M02 A3032 RMK A01 T00541020  RH  059%=      5-min Rain = 0
KCL2 121554Z 34008KT 06/M02 A3032 RMK A01 T00551019  RH  059%=      5-min Rain = 0
KCL2 121555Z 34008KT 06/M02 A3033 RMK A01 T00561022  RH  058%=      5-min Rain = 0
KCL2 121556Z 32009KT 05/M02 A3033 RMK A01 T00541023  RH  058%=      5-min Rain = 0
KCL2 121557Z 33009KT 05/M02 A3033 RMK A01 T00531022  RH  058%=      5-min Rain = 0
KCL2 121558Z 34008KT 05/M02 A3033 RMK A01 T00541023  RH  058%=      5-min Rain = 0
KCL2 121559Z 33009KT 05/M03 A3033 RMK A01 T00531025  RH  057%=      5-min Rain = 0
KCL2 121600Z 35007KT 05/M02 A3033 RMK A01 T00531024  RH  057%=      5-min Rain = 0
KCL2 121601Z 34006KT 05/M03 A3033 RMK A01 T00531025  RH  057%=      5-min Rain = 0
KCL2 121602Z 35008KT 05/M02 A3033 RMK A01 T00531023  RH  058%=      5-min Rain = 0
KCL2 121603Z 35008KT 05/M03 A3033 RMK A01 T00531026  RH  057%=      5-min Rain = 0
KCL2 121604Z 34004KT 05/M03 A3033 RMK A01 T00511030  RH  056%=      5-min Rain = 0
KCL2 121605Z 35004KT 05/M02 A3033 RMK A01 T00511024  RH  058%=      5-min Rain = 0
KCL2 121606Z 33010KT 06/M02 A3033 RMK A01 T00551020  RH  059%=      5-min Rain = 0
KCL2 121607Z 35008KT 06/M02 A3033 RMK A01 T00571022  RH  057%=      5-min Rain = 0
KCL2 121608Z 33007KT 06/M02 A3033 RMK A01 T00571020  RH  058%=      5-min Rain = 0
KCL2 121609Z 33009KT 06/M03 A3033 RMK A01 T00561026  RH  056%=      5-min Rain = 0
KCL2 121610Z 33008KT 06/M03 A3033 RMK A01 T00551025  RH  056%=      5-min Rain = 0
KCL2 121611Z 34007KT 06/M02 A3033 RMK A01 T00551024  RH  057%=      5-min Rain = 0
KCL2 121612Z 01008KT 06/M02 A3033 RMK A01 T00571022  RH  057%=      5-min Rain = 0
KCL2 121613Z 00007KT 06/M03 A3033 RMK A01 T00561026  RH  056%=      5-min Rain = 0
KCL2 121614Z 01007KT 05/M03 A3033 RMK A01 T00541026  RH  056%=      5-min Rain = 0
KCL2 121615Z 36007KT 06/M02 A3033 RMK A01 T00551024  RH  057%=      5-min Rain = 0
KCL2 121616Z 35005KT 05/M03 A3033 RMK A01 T00541026  RH  056%=      5-min Rain = 0
KCL2 121617Z 33004KT 06/M03 A3033 RMK A01 T00551027  RH  056%=      5-min Rain = 0
KCL2 121618Z 33008KT 06/M02 A3033 RMK A01 T00571022  RH  057%=      5-min Rain = 0
KCL2 121619Z 36009KT 06/M02 A3033 RMK A01 T00601021  RH  056%=      5-min Rain = 0
KCL2 121620Z 36008KT 06/M03 A3033 RMK A01 T00601025  RH  054%=      5-min Rain = 0
KCL2 121621Z 35009KT 06/M03 A3033 RMK A01 T00581030  RH  053%=      5-min Rain = 0
KCL2 121622Z 35008KT 06/M03 A3033 RMK A01 T00571030  RH  054%=      5-min Rain = 0
KCL2 121623Z 00006KT 06/M03 A3034 RMK A01 T00581027  RH  054%=      5-min Rain = 0
KCL2 121624Z 01006KT 06/M03 A3034 RMK A01 T00591026  RH  054%=      5-min Rain = 0
KCL2 121625Z 35008KT 06/M03 A3034 RMK A01 T00581026  RH  055%=      5-min Rain = 0
KCL2 121626Z 34009KT 06/M03 A3034 RMK A01 T00571026  RH  055%=      5-min Rain = 0
KCL2 121627Z 34009KT 06/M02 A3034 RMK A01 T00581023  RH  056%=      5-min Rain = 0
KCL2 121628Z 34008KT 06/M03 A3034 RMK A01 T00581026  RH  055%=      5-min Rain = 0
KCL2 121629Z 33008KT 06/M02 A3034 RMK A01 T00591023  RH  056%=      5-min Rain = 0
KCL2 121630Z 33006KT 06/M03 A3034 RMK A01 T00591025  RH  055%=      5-min Rain = 0
KCL2 121631Z 33007KT 06/M02 A3034 RMK A01 T00601024  RH  055%=      5-min Rain = 0
KCL2 121632Z 32008KT 06/M02 A3034 RMK A01 T00611024  RH  055%=      5-min Rain = 0
KCL2 121633Z 34008KT 06/M03 A3034 RMK A01 T00611025  RH  054%=      5-min Rain = 0
KCL2 121634Z 35005KT 06/M02 A3034 RMK A01 T00601024  RH  055%=      5-min Rain = 0
KCL2 121635Z 34005KT 06/M03 A3034 RMK A01 T00591025  RH  055%=      5-min Rain = 0
KCL2 121636Z 32007KT 06/M02 A3034 RMK A01 T00591023  RH  055%=      5-min Rain = 0
KCL2 121637Z 30004KT 06/M03 A3034 RMK A01 T00591027  RH  054%=      5-min Rain = 0
KCL2 121638Z 30004KT 06/M03 A3034 RMK A01 T00571028  RH  055%=      5-min Rain = 0
KCL2 121639Z 30002KT 06/M03 A3034 RMK A01 T00571027  RH  055%=      5-min Rain = 0
KCL2 121640Z 00005KT 06/M02 A3034 RMK A01 T00601020  RH  057%=      5-min Rain = 0
KCL2 121641Z 01006KT 06/M02 A3034 RMK A01 T00621024  RH  054%=      5-min Rain = 0
KCL2 121642Z 35005KT 06/M03 A3034 RMK A01 T00621027  RH  053%=      5-min Rain = 0
KCL2 121643Z 33006KT 06/M03 A3034 RMK A01 T00601029  RH  053%=      5-min Rain = 0
KCL2 121644Z 33004KT 06/M03 A3034 RMK A01 T00611026  RH  054%=      5-min Rain = 0
KCL2 121645Z 35006KT 06/M03 A3034 RMK A01 T00621025  RH  054%=      5-min Rain = 0
KCL2 121646Z 32007KT 06/M02 A3034 RMK A01 T00631024  RH  054%=      5-min Rain = 0
KCL2 121647Z 34008KT 07/M02 A3034 RMK A01 T00661021  RH  054%=      5-min Rain = 0
KCL2 121648Z 35008KT 07/M03 A3034 RMK A01 T00671025  RH  052%=      5-min Rain = 0
KCL2 121649Z 35007KT 07/M03 A3034 RMK A01 T00671025  RH  052%=      5-min Rain = 0
KCL2 121650Z 35006KT 07/M03 A3034 RMK A01 T00651027  RH  052%=      5-min Rain = 0
KCL2 121651Z 35005KT 06/M03 A3034 RMK A01 T00641025  RH  053%=      5-min Rain = 0
KCL2 121652Z 34008KT 07/M02 A3034 RMK A01 T00661023  RH  053%=      5-min Rain = 0
KCL2 121653Z 33006KT 07/M02 A3034 RMK A01 T00671023  RH  053%=      5-min Rain = 0
KCL2 121654Z 32004KT 07/M02 A3034 RMK A01 T00651024  RH  053%=      5-min Rain = 0
KCL2 121655Z 33008KT 07/M02 A3034 RMK A01 T00681020  RH  054%=      5-min Rain = 0
KCL2 121656Z 33008KT 07/M03 A3034 RMK A01 T00691025  RH  051%=      5-min Rain = 0
KCL2 121657Z 34009KT 07/M03 A3034 RMK A01 T00691026  RH  051%=      5-min Rain = 0
KCL2 121658Z 34007KT 07/M03 A3034 RMK A01 T00681027  RH  051%=      5-min Rain = 0
KCL2 121659Z 35008KT 07/M02 A3034 RMK A01 T00681024  RH  052%=      5-min Rain = 0
KCL2 121700Z 36007KT 07/M02 A3034 RMK A01 T00691024  RH  052%=      5-min Rain = 0
KCL2 121701Z 33008KT 07/M02 A3034 RMK A01 T00691023  RH  052%=      5-min Rain = 0
KCL2 121702Z 31008KT 07/M02 A3034 RMK A01 T00691021  RH  053%=      5-min Rain = 0
KCL2 121703Z 31006KT 07/M02 A3033 RMK A01 T00701023  RH  051%=      5-min Rain = 0
KCL2 121704Z 32005KT 07/M03 A3033 RMK A01 T00701025  RH  051%=      5-min Rain = 0
KCL2 121705Z 36006KT 07/M02 A3033 RMK A01 T00691022  RH  052%=      5-min Rain = 0
KCL2 121706Z 02006KT 07/M02 A3033 RMK A01 T00711022  RH  052%=      5-min Rain = 0
KCL2 121707Z 34008KT 07/M02 A3033 RMK A01 T00721021  RH  052%=      5-min Rain = 0
KCL2 121708Z 35007KT 07/M03 A3033 RMK A01 T00741026  RH  049%=      5-min Rain = 0
KCL2 121709Z 00008KT 07/M03 A3033 RMK A01 T00731031  RH  047%=      5-min Rain = 0
KCL2 121710Z 01006KT 07/M03 A3033 RMK A01 T00741031  RH  048%=      5-min Rain = 0
KCL2 121711Z 01005KT 07/M03 A3033 RMK A01 T00721026  RH  050%=      5-min Rain = 0
KCL2 121712Z 34010KT 07/M02 A3033 RMK A01 T00731024  RH  050%=      5-min Rain = 0
KCL2 121713Z 35011KT 07/M03 A3033 RMK A01 T00741028  RH  048%=      5-min Rain = 0
KCL2 121714Z 35008KT 07/M03 A3033 RMK A01 T00731031  RH  048%=      5-min Rain = 0
KCL2 121715Z 00006KT 07/M03 A3033 RMK A01 T00711033  RH  048%=      5-min Rain = 0
KCL2 121716Z 01004KT 07/M03 A3033 RMK A01 T00701029  RH  049%=      5-min Rain = 0
KCL2 121717Z 02005KT 07/M03 A3033 RMK A01 T00701028  RH  050%=      5-min Rain = 0
KCL2 121718Z 00009KT 07/M03 A3033 RMK A01 T00721028  RH  049%=      5-min Rain = 0
KCL2 121719Z 36009KT 07/M03 A3033 RMK A01 T00741028  RH  049%=      5-min Rain = 0
KCL2 121720Z 33007KT 08/M02 A3033 RMK A01 T00761024  RH  049%=      5-min Rain = 0
KCL2 121721Z 00007KT 08/M02 A3033 RMK A01 T00821022  RH  048%=      5-min Rain = 0
KCL2 121722Z 34008KT 08/M02 A3033 RMK A01 T00831023  RH  047%=      5-min Rain = 0
KCL2 121723Z 32006KT 08/M02 A3033 RMK A01 T00831020  RH  048%=      5-min Rain = 0
KCL2 121724Z 33008KT 08/M02 A3033 RMK A01 T00831023  RH  047%=      5-min Rain = 0
KCL2 121725Z 36008KT 08/M03 A3033 RMK A01 T00831026  RH  046%=      5-min Rain = 0
KCL2 121726Z 00007KT 08/M03 A3033 RMK A01 T00831026  RH  046%=      5-min Rain = 0
KCL2 121727Z 00009KT 08/M03 A3033 RMK A01 T00801034  RH  044%=      5-min Rain = 0
KCL2 121728Z 36011KT 08/M04 A3033 RMK A01 T00791035  RH  044%=      5-min Rain = 0
KCL2 121729Z 36009KT 08/M04 A3033 RMK A01 T00781036  RH  044%=      5-min Rain = 0
KCL2 121730Z 01006KT 08/M03 A3033 RMK A01 T00771033  RH  046%=      5-min Rain = 0
KCL2 121731Z 00008KT 08/M03 A3033 RMK A01 T00791025  RH  048%=      5-min Rain = 0
KCL2 121732Z 36006KT 08/M03 A3033 RMK A01 T00811026  RH  047%=      5-min Rain = 0
KCL2 121733Z 35008G13KT 08/M03 A3033 RMK A01 T00801026  RH  047%=      5-min Rain = 0
KCL2 121734Z 35009KT 08/M02 A3033 RMK A01 T00831023  RH  047%=      5-min Rain = 0
KCL2 121735Z 34009KT 08/M03 A3033 RMK A01 T00841029  RH  045%=      5-min Rain = 0
KCL2 121736Z 35010KT 08/M04 A3033 RMK A01 T00811035  RH  044%=      5-min Rain = 0
KCL2 121737Z 33008KT 08/M04 A3033 RMK A01 T00821035  RH  044%=      5-min Rain = 0
KCL2 121738Z 34009KT 08/M03 A3033 RMK A01 T00811034  RH  044%=      5-min Rain = 0
KCL2 121739Z 34011KT 08/M03 A3033 RMK A01 T00811029  RH  046%=      5-min Rain = 0
KCL2 121740Z 35012KT 09/M03 A3033 RMK A01 T00851028  RH  045%=      5-min Rain = 0
KCL2 121741Z 35010KT 08/M04 A3033 RMK A01 T00841035  RH  043%=      5-min Rain = 0
KCL2 121742Z 35008KT 08/M03 A3033 RMK A01 T00831033  RH  044%=      5-min Rain = 0
KCL2 121743Z 01007KT 08/M04 A3033 RMK A01 T00841035  RH  043%=      5-min Rain = 0
KCL2 121744Z 35005KT 08/M03 A3033 RMK A01 T00831031  RH  044%=      5-min Rain = 0
KCL2 121745Z 34009KT 08/M03 A3033 RMK A01 T00831032  RH  044%=      5-min Rain = 0
KCL2 121746Z 34011KT 09/M03 A3033 RMK A01 T00871027  RH  045%=      5-min Rain = 0
KCL2 121747Z 35011KT 09/M03 A3033 RMK A01 T00891030  RH  043%=      5-min Rain = 0
KCL2 121748Z 35011KT 09/M03 A3033 RMK A01 T00871034  RH  042%=      5-min Rain = 0
KCL2 121749Z 34011KT 09/M04 A3032 RMK A01 T00861038  RH  041%=      5-min Rain = 0
KCL2 121750Z 35012KT 09/M04 A3033 RMK A01 T00861039  RH  041%=      5-min Rain = 0
KCL2 121751Z 36010KT 09/M04 A3032 RMK A01 T00861037  RH  042%=      5-min Rain = 0
KCL2 121752Z 36010KT 09/M04 A3033 RMK A01 T00851041  RH  041%=      5-min Rain = 0
KCL2 121753Z 36009KT 09/M03 A3033 RMK A01 T00851033  RH  043%=      5-min Rain = 0
KCL2 121754Z 34008KT 09/M03 A3033 RMK A01 T00871031  RH  043%=      5-min Rain = 0
KCL2 121755Z 35007KT 09/M04 A3032 RMK A01 T00871036  RH  041%=      5-min Rain = 0
KCL2 121756Z 34009KT 09/M04 A3032 RMK A01 T00861036  RH  042%=      5-min Rain = 0
KCL2 121757Z 34007KT 09/M03 A3032 RMK A01 T00881032  RH  042%=      5-min Rain = 0
KCL2 121758Z 00008KT 09/M03 A3032 RMK A01 T00921030  RH  042%=      5-min Rain = 0
KCL2 121759Z 02008KT 09/M03 A3032 RMK A01 T00931030  RH  042%=      5-min Rain = 0
KCL2 121800Z 35010KT 09/M03 A3032 RMK A01 T00931030  RH  042%=      5-min Rain = 0
KCL2 121801Z 34008KT 09/M04 A3032 RMK A01 T00921035  RH  040%=      5-min Rain = 0
KCL2 121802Z 35007KT 09/M04 A3032 RMK A01 T00911037  RH  040%=      5-min Rain = 0
KCL2 121803Z 00007KT 09/M04 A3032 RMK A01 T00891040  RH  040%=      5-min Rain = 0
KCL2 121804Z 01008KT 09/M04 A3032 RMK A01 T00891037  RH  041%=      5-min Rain = 0
KCL2 121805Z 01006KT 09/M04 A3032 RMK A01 T00881036  RH  041%=      5-min Rain = 0
KCL2 121806Z 35008KT 09/M03 A3032 RMK A01 T00891032  RH  042%=      5-min Rain = 0
KCL2 121807Z 35010KT 09/M04 A3032 RMK A01 T00901036  RH  041%=      5-min Rain = 0
KCL2 121808Z 34008KT 09/M04 A3032 RMK A01 T00901038  RH  040%=      5-min Rain = 0
KCL2 121809Z 34007KT 09/M03 A3032 RMK A01 T00891033  RH  042%=      5-min Rain = 0
KCL2 121810Z 35006KT 09/M04 A3032 RMK A01 T00901036  RH  041%=      5-min Rain = 0
KCL2 121811Z 34005KT 09/M04 A3032 RMK A01 T00891038  RH  040%=      5-min Rain = 0
KCL2 121812Z 34008KT 09/M04 A3032 RMK A01 T00901036  RH  041%=      5-min Rain = 0
KCL2 121813Z 01008KT 09/M03 A3032 RMK A01 T00931032  RH  041%=      5-min Rain = 0
KCL2 121814Z 02008KT 10/M03 A3032 RMK A01 T00951030  RH  041%=      5-min Rain = 0
KCL2 121815Z 02008KT 10/M04 A3032 RMK A01 T00951035  RH  040%=      5-min Rain = 0
KCL2 121816Z 32007KT 09/M04 A3032 RMK A01 T00931036  RH  040%=      5-min Rain = 0
KCL2 121817Z 00008KT 10/M03 A3032 RMK A01 T00971030  RH  041%=      5-min Rain = 0
KCL2 121818Z 34008KT 10/M03 A3032 RMK A01 T01001029  RH  040%=      5-min Rain = 0
KCL2 121819Z 34008KT 10/M04 A3032 RMK A01 T01011036  RH  038%=      5-min Rain = 0
KCL2 121820Z 36006KT 10/M04 A3032 RMK A01 T01001036  RH  038%=      5-min Rain = 0
KCL2 121821Z 03006KT 10/M04 A3032 RMK A01 T00991036  RH  038%=      5-min Rain = 0
KCL2 121822Z 03010KT 10/M03 A3033 RMK A01 T00981031  RH  040%=      5-min Rain = 0
KCL2 121823Z 04009KT 10/M03 A3033 RMK A01 T00971032  RH  040%=      5-min Rain = 0
KCL2 121824Z 34008KT 10/M03 A3033 RMK A01 T00981026  RH  042%=      5-min Rain = 0
KCL2 121825Z 35007KT 10/M04 A3033 RMK A01 T00981035  RH  039%=      5-min Rain = 0
KCL2 121826Z 33009KT 10/M03 A3033 RMK A01 T00971033  RH  040%=      5-min Rain = 0
KCL2 121827Z 34010KT 10/M03 A3032 RMK A01 T00991032  RH  040%=      5-min Rain = 0
KCL2 121828Z 35011KT 10/M03 A3033 RMK A01 T01011032  RH  039%=      5-min Rain = 0
KCL2 121829Z 00008KT 10/M03 A3033 RMK A01 T01011032  RH  039%=      5-min Rain = 0
KCL2 121830Z 36006KT 10/M03 A3033 RMK A01 T00981033  RH  039%=      5-min Rain = 0
KCL2 121831Z 35003G8KT 10/M03 A3032 RMK A01 T00981033  RH  040%=      5-min Rain = 0
KCL2 121832Z 01007KT 10/M03 A3032 RMK A01 T00981032  RH  040%=      5-min Rain = 0
KCL2 121833Z 36009KT 10/M03 A3032 RMK A01 T00981032  RH  040%=      5-min Rain = 0
KCL2 121834Z 35009KT 10/M03 A3032 RMK A01 T01001029  RH  041%=      5-min Rain = 0
KCL2 121835Z 36008KT 10/M03 A3032 RMK A01 T01011034  RH  038%=      5-min Rain = 0
KCL2 121836Z 36006KT 10/M03 A3032 RMK A01 T01021028  RH  040%=      5-min Rain = 0
KCL2 121837Z 35010KT 10/M03 A3032 RMK A01 T01031030  RH  039%=      5-min Rain = 0
KCL2 121838Z 35008KT 10/M04 A3032 RMK A01 T01021035  RH  038%=      5-min Rain = 0
KCL2 121839Z 35007KT 10/M04 A3032 RMK A01 T01011037  RH  037%=      5-min Rain = 0
KCL2 121840Z 34008KT 10/M04 A3032 RMK A01 T01011040  RH  037%=      5-min Rain = 0
KCL2 121841Z 34008KT 10/M04 A3032 RMK A01 T01021039  RH  037%=      5-min Rain = 0
KCL2 121842Z 35008KT 10/M04 A3032 RMK A01 T01011039  RH  037%=      5-min Rain = 0
KCL2 121843Z 36006KT 10/M04 A3032 RMK A01 T01011038  RH  037%=      5-min Rain = 0
KCL2 121844Z 34009KT 10/M04 A3032 RMK A01 T01011035  RH  038%=      5-min Rain = 0
KCL2 121845Z 36009KT 11/M03 A3032 RMK A01 T01051031  RH  038%=      5-min Rain = 0
KCL2 121846Z 00008KT 11/M04 A3032 RMK A01 T01061036  RH  037%=      5-min Rain = 0
KCL2 121847Z 35010KT 10/M04 A3032 RMK A01 T01031038  RH  037%=      5-min Rain = 0
KCL2 121848Z 34007KT 10/M04 A3032 RMK A01 T01021040  RH  037%=      5-min Rain = 0
KCL2 121849Z 00006KT 10/M03 A3032 RMK A01 T01021034  RH  038%=      5-min Rain = 0
KCL2 121850Z 34006KT 11/M04 A3032 RMK A01 T01051035  RH  037%=      5-min Rain = 0
KCL2 121851Z 36004KT 10/M04 A3032 RMK A01 T01041038  RH  037%=      5-min Rain = 0
KCL2 121852Z 02005KT 10/M04 A3031 RMK A01 T01031038  RH  037%=      5-min Rain = 0
KCL2 121853Z 00006G11KT 10/M04 A3031 RMK A01 T01011038  RH  037%=      5-min Rain = 0
KCL2 121854Z 36009KT 10/M03 A3031 RMK A01 T01021032  RH  039%=      5-min Rain = 0
KCL2 121855Z 02009KT 11/M03 A3031 RMK A01 T01061030  RH  038%=      5-min Rain = 0
KCL2 121856Z 01006KT 11/M03 A3031 RMK A01 T01061034  RH  037%=      5-min Rain = 0
KCL2 121857Z 35008KT 11/M03 A3031 RMK A01 T01051033  RH  038%=      5-min Rain = 0
KCL2 121858Z 01008KT 11/M03 A3031 RMK A01 T01071026  RH  039%=      5-min Rain = 0
KCL2 121859Z 03007KT 11/M03 A3031 RMK A01 T01081031  RH  038%=      5-min Rain = 0
KCL2 121900Z 02008KT 11/M03 A3031 RMK A01 T01071030  RH  038%=      5-min Rain = 0
KCL2 121901Z 01011KT 11/M04 A3031 RMK A01 T01071036  RH  037%=      5-min Rain = 0
KCL2 121902Z 34009KT 11/M04 A3031 RMK A01 T01061040  RH  035%=      5-min Rain = 0
KCL2 121903Z 01008KT 11/M04 A3031 RMK A01 T01061041  RH  035%=      5-min Rain = 0
KCL2 121904Z 00008KT 11/M04 A3031 RMK A01 T01071039  RH  036%=      5-min Rain = 0
KCL2 121905Z 36006KT 11/M04 A3031 RMK A01 T01051043  RH  035%=      5-min Rain = 0
KCL2 121906Z 35006KT 10/M04 A3031 RMK A01 T01041044  RH  035%=      5-min Rain = 0
KCL2 121907Z 00007KT 10/M04 A3031 RMK A01 T01041041  RH  036%=      5-min Rain = 0
KCL2 121908Z 01005KT 11/M05 A3031 RMK A01 T01051045  RH  035%=      5-min Rain = 0
KCL2 121909Z 36006G11KT 10/M04 A303 RMK A01 T01041038  RH  037%=      5-min Rain = 0
KCL2 121910Z 00010KT 11/M04 A303 RMK A01 T01071039  RH  036%=      5-min Rain = 0
KCL2 121911Z 00009KT 11/M05 A303 RMK A01 T01081048  RH  033%=      5-min Rain = 0
KCL2 121912Z 00009KT 11/M05 A303 RMK A01 T01061046  RH  034%=      5-min Rain = 0
KCL2 121913Z 00011KT 11/M04 A303 RMK A01 T01051040  RH  036%=      5-min Rain = 0
KCL2 121914Z 00008KT 11/M04 A303 RMK A01 T01061042  RH  035%=      5-min Rain = 0
KCL2 121915Z 01010KT 11/M04 A303 RMK A01 T01051040  RH  036%=      5-min Rain = 0
KCL2 121916Z 36009KT 11/M04 A303 RMK A01 T01051038  RH  036%=      5-min Rain = 0
KCL2 121917Z 01008KT 11/M04 A303 RMK A01 T01051042  RH  035%=      5-min Rain = 0
KCL2 121918Z 02008KT 11/M03 A303 RMK A01 T01071034  RH  037%=      5-min Rain = 0
KCL2 121919Z 00009KT 11/M03 A3029 RMK A01 T01101034  RH  036%=      5-min Rain = 0
KCL2 121920Z 03006KT 11/M04 A3029 RMK A01 T01081041  RH  035%=      5-min Rain = 0
KCL2 121921Z 02007KT 11/M04 A3029 RMK A01 T01071041  RH  035%=      5-min Rain = 0
KCL2 121922Z 04011KT 11/M04 A3029 RMK A01 T01071042  RH  035%=      5-min Rain = 0
KCL2 121923Z 04009KT 11/M05 A3029 RMK A01 T01061050  RH  033%=      5-min Rain = 0
KCL2 121924Z 03009KT 11/M04 A3029 RMK A01 T01071038  RH  036%=      5-min Rain = 0
KCL2 121925Z 04007KT 11/M03 A3029 RMK A01 T01131031  RH  036%=      5-min Rain = 0
KCL2 121926Z 04006KT 12/M04 A3029 RMK A01 T01151040  RH  034%=      5-min Rain = 0
KCL2 121927Z 04006KT 11/M04 A3029 RMK A01 T01131043  RH  033%=      5-min Rain = 0
KCL2 121928Z 05006KT 11/M04 A3029 RMK A01 T01101044  RH  034%=      5-min Rain = 0
KCL2 121929Z 01006KT 11/M04 A3029 RMK A01 T01101038  RH  035%=      5-min Rain = 0
KCL2 121930Z 02005KT 11/M04 A3029 RMK A01 T01111038  RH  035%=      5-min Rain = 0
KCL2 121931Z 01007KT 11/M03 A3029 RMK A01 T01141034  RH  035%=      5-min Rain = 0
KCL2 121932Z 02007KT 11/M04 A3028 RMK A01 T01141042  RH  033%=      5-min Rain = 0
KCL2 121933Z 34010KT 11/M04 A3028 RMK A01 T01131040  RH  034%=      5-min Rain = 0
KCL2 121934Z 33008KT 11/M04 A3028 RMK A01 T01131042  RH  033%=      5-min Rain = 0
KCL2 121935Z 35010KT 12/M04 A3028 RMK A01 T01161041  RH  033%=      5-min Rain = 0
KCL2 121936Z 35007KT 11/M05 A3028 RMK A01 T01121049  RH  032%=      5-min Rain = 0
KCL2 121937Z 34007KT 11/M05 A3028 RMK A01 T01101045  RH  033%=      5-min Rain = 0
KCL2 121938Z 35004KT 11/M04 A3028 RMK A01 T01101042  RH  034%=      5-min Rain = 0
KCL2 121939Z 35004KT 11/M04 A3028 RMK A01 T01111044  RH  034%=      5-min Rain = 0
KCL2 121940Z 35007KT 11/M04 A3028 RMK A01 T01121037  RH  035%=      5-min Rain = 0
KCL2 121941Z 36007KT 11/M04 A3028 RMK A01 T01121043  RH  033%=      5-min Rain = 0
KCL2 121942Z 00008KT 11/M04 A3028 RMK A01 T01131039  RH  034%=      5-min Rain = 0
KCL2 121943Z 36006KT 11/M04 A3028 RMK A01 T01141040  RH  034%=      5-min Rain = 0
KCL2 121944Z 00005G11KT 12/M04 A3028 RMK A01 T01151040  RH  034%=      5-min Rain = 0
KCL2 121945Z 00009KT 12/M04 A3028 RMK A01 T01161039  RH  034%=      5-min Rain = 0
KCL2 121946Z 00008KT 12/M04 A3028 RMK A01 T01161041  RH  033%=      5-min Rain = 0
KCL2 121947Z 02007KT 12/M04 A3028 RMK A01 T01151043  RH  033%=      5-min Rain = 0
KCL2 121948Z 03007KT 11/M04 A3028 RMK A01 T01141041  RH  034%=      5-min Rain = 0
KCL2 121949Z 03007KT 11/M04 A3028 RMK A01 T01141038  RH  034%=      5-min Rain = 0
KCL2 121950Z 01007KT 11/M04 A3028 RMK A01 T01131042  RH  033%=      5-min Rain = 0
KCL2 121951Z 02009KT 11/M04 A3028 RMK A01 T01121041  RH  034%=      5-min Rain = 0
KCL2 121952Z 03009KT 12/M03 A3028 RMK A01 T01181030  RH  035%=      5-min Rain = 0
KCL2 121953Z 03009KT 12/M04 A3028 RMK A01 T01221040  RH  032%=      5-min Rain = 0
KCL2 121954Z 03005KT 12/M05 A3028 RMK A01 T01181046  RH  031%=      5-min Rain = 0
KCL2 121955Z 02007KT 12/M04 A3028 RMK A01 T01181039  RH  033%=      5-min Rain = 0
KCL2 121956Z 35007KT 12/M04 A3028 RMK A01 T01201036  RH  033%=      5-min Rain = 0
KCL2 121957Z 35008KT 12/M04 A3028 RMK A01 T01211042  RH  032%=      5-min Rain = 0
KCL2 121958Z 35007KT 12/M05 A3028 RMK A01 T01181045  RH  032%=      5-min Rain = 0
KCL2 121959Z 36007KT 12/M04 A3028 RMK A01 T01191044  RH  032%=      5-min Rain = 0
KCL2 122000Z 04009KT 12/M04 A3028 RMK A01 T01201041  RH  032%=      5-min Rain = 0
KCL2 122001Z 03009KT 12/M04 A3027 RMK A01 T01201040  RH  032%=      5-min Rain = 0
KCL2 122002Z 03008KT 12/M04 A3027 RMK A01 T01201039  RH  033%=      5-min Rain = 0
KCL2 122003Z 03006KT 12/M04 A3027 RMK A01 T01181041  RH  032%=      5-min Rain = 0
KCL2 122004Z 01007KT 12/M04 A3027 RMK A01 T01171042  RH  033%=      5-min Rain = 0
KCL2 122005Z 00009KT 12/M04 A3027 RMK A01 T01181036  RH  034%=      5-min Rain = 0
KCL2 122006Z 01007KT 12/M04 A3027 RMK A01 T01191040  RH  033%=      5-min Rain = 0
KCL2 122007Z 02006KT 12/M04 A3027 RMK A01 T01171039  RH  033%=      5-min Rain = 0
KCL2 122008Z 01005KT 12/M04 A3027 RMK A01 T01171038  RH  034%=      5-min Rain = 0
KCL2 122009Z 03005KT 12/M03 A3027 RMK A01 T01191034  RH  034%=      5-min Rain = 0
KCL2 122010Z 03010KT 12/M04 A3027 RMK A01 T01201037  RH  033%=      5-min Rain = 0
KCL2 122011Z 02008KT 12/M04 A3027 RMK A01 T01211037  RH  033%=      5-min Rain = 0
KCL2 122012Z 05008KT 12/M04 A3027 RMK A01 T01201035  RH  034%=      5-min Rain = 0
KCL2 122013Z 04008KT 12/M03 A3027 RMK A01 T01231032  RH  034%=      5-min Rain = 0
KCL2 122014Z 02008KT 12/M04 A3027 RMK A01 T01231037  RH  033%=      5-min Rain = 0
KCL2 122015Z 02009KT 12/M04 A3027 RMK A01 T01201041  RH  032%=      5-min Rain = 0
KCL2 122016Z 00010KT 12/M04 A3027 RMK A01 T01201041  RH  032%=      5-min Rain = 0
KCL2 122017Z 34009KT 12/M04 A3027 RMK A01 T01191043  RH  032%=      5-min Rain = 0
KCL2 122018Z 01010KT 12/M04 A3027 RMK A01 T01181041  RH  033%=      5-min Rain = 0
KCL2 122019Z 35008KT 12/M04 A3027 RMK A01 T01201043  RH  032%=      5-min Rain = 0
KCL2 122020Z 36008KT 12/M05 A3027 RMK A01 T01191048  RH  031%=      5-min Rain = 0
KCL2 122021Z 02008KT 12/M04 A3027 RMK A01 T01191041  RH  033%=      5-min Rain = 0
KCL2 122022Z 02009KT 12/M04 A3027 RMK A01 T01221038  RH  033%=      5-min Rain = 0
KCL2 122023Z 03006KT 12/M04 A3027 RMK A01 T01211038  RH  033%=      5-min Rain = 0
KCL2 122024Z 04005KT 12/M04 A3027 RMK A01 T01221037  RH  033%=      5-min Rain = 0
KCL2 122025Z 02004KT 12/M04 A3027 RMK A01 T01231036  RH  033%=      5-min Rain = 0
KCL2 122026Z 03006KT 12/M04 A3026 RMK A01 T01241036  RH  033%=      5-min Rain = 0
KCL2 122027Z 01008KT 13/M04 A3026 RMK A01 T01261036  RH  032%=      5-min Rain = 0
KCL2 122028Z 01008KT 13/M05 A3026 RMK A01 T01271045  RH  030%=      5-min Rain = 0
KCL2 122029Z 35008KT 13/M05 A3026 RMK A01 T01261048  RH  029%=      5-min Rain = 0
KCL2 122030Z 35010KT 13/M05 A3026 RMK A01 T01291047  RH  029%=      5-min Rain = 0
KCL2 122031Z 01009KT 13/M05 A3026 RMK A01 T01281048  RH  029%=      5-min Rain = 0
KCL2 122032Z 01008KT 13/M06 A3026 RMK A01 T01251055  RH  028%=      5-min Rain = 0
KCL2 122033Z 02011KT 12/M04 A3026 RMK A01 T01241044  RH  031%=      5-min Rain = 0
KCL2 122034Z 00009KT 13/M04 A3026 RMK A01 T01261044  RH  030%=      5-min Rain = 0
KCL2 122035Z 01010KT 13/M05 A3026 RMK A01 T01271046  RH  030%=      5-min Rain = 0
KCL2 122036Z 02008KT 13/M05 A3026 RMK A01 T01261046  RH  030%=      5-min Rain = 0
KCL2 122037Z 03007KT 13/M04 A3026 RMK A01 T01271042  RH  030%=      5-min Rain = 0
KCL2 122038Z 03005KT 13/M05 A3026 RMK A01 T01261048  RH  029%=      5-min Rain = 0
KCL2 122039Z 02007KT 13/M05 A3026 RMK A01 T01261045  RH  030%=      5-min Rain = 0
KCL2 122040Z 36008KT 13/M05 A3026 RMK A01 T01251048  RH  030%=      5-min Rain = 0
KCL2 122041Z 03007KT 13/M05 A3026 RMK A01 T01261045  RH  030%=      5-min Rain = 0
KCL2 122042Z 02011KT 13/M05 A3026 RMK A01 T01271045  RH  030%=      5-min Rain = 0
KCL2 122043Z 02009KT 13/M05 A3026 RMK A01 T01261051  RH  029%=      5-min Rain = 0
KCL2 122044Z 02009KT 13/M05 A3026 RMK A01 T01251048  RH  030%=      5-min Rain = 0
KCL2 122045Z 02008KT 13/M05 A3026 RMK A01 T01251047  RH  030%=      5-min Rain = 0
KCL2 122046Z 00006KT 13/M05 A3026 RMK A01 T01251052  RH  029%=      5-min Rain = 0
KCL2 122047Z 35006KT 12/M05 A3025 RMK A01 T01241052  RH  029%=      5-min Rain = 0
KCL2 122048Z 03008KT 13/M05 A3026 RMK A01 T01251050  RH  029%=      5-min Rain = 0
KCL2 122049Z 04007KT 13/M05 A3025 RMK A01 T01251050  RH  029%=      5-min Rain = 0
KCL2 122050Z 06008KT 13/M05 A3025 RMK A01 T01251048  RH  030%=      5-min Rain = 0
KCL2 122051Z 05008KT 13/M05 A3025 RMK A01 T01271048  RH  029%=      5-min Rain = 0
KCL2 122052Z 05007KT 13/M05 A3025 RMK A01 T01261049  RH  029%=      5-min Rain = 0
KCL2 122053Z 03007KT 13/M05 A3025 RMK A01 T01251048  RH  030%=      5-min Rain = 0
KCL2 122054Z 02009KT 13/M04 A3025 RMK A01 T01261041  RH  031%=      5-min Rain = 0
KCL2 122055Z 01009KT 13/M05 A3025 RMK A01 T01271047  RH  029%=      5-min Rain = 0
KCL2 122056Z 36009KT 13/M05 A3025 RMK A01 T01261048  RH  029%=      5-min Rain = 0
KCL2 122057Z 01008KT 13/M05 A3025 RMK A01 T01261049  RH  029%=      5-min Rain = 0
KCL2 122058Z 02007KT 13/M05 A3025 RMK A01 T01261049  RH  029%=      5-min Rain = 0
KCL2 122059Z 35007KT 13/M05 A3025 RMK A01 T01261046  RH  030%=      5-min Rain = 0
KCL2 122100Z 01007KT 13/M05 A3025 RMK A01 T01271049  RH  029%=      5-min Rain = 0
KCL2 122101Z 04010KT 13/M05 A3025 RMK A01 T01261047  RH  030%=      5-min Rain = 0
KCL2 122102Z 04009KT 13/M05 A3025 RMK A01 T01271047  RH  029%=      5-min Rain = 0
KCL2 122103Z 03009KT 13/M05 A3025 RMK A01 T01271048  RH  029%=      5-min Rain = 0
KCL2 122104Z 03009KT 13/M05 A3025 RMK A01 T01271049  RH  029%=      5-min Rain = 0
KCL2 122105Z 04007KT 13/M05 A3025 RMK A01 T01261050  RH  029%=      5-min Rain = 0
KCL2 122106Z 04007KT 13/M05 A3025 RMK A01 T01251046  RH  030%=      5-min Rain = 0
KCL2 122107Z 05006KT 13/M05 A3025 RMK A01 T01261046  RH  030%=      5-min Rain = 0
KCL2 122108Z 03007G12KT 13/M05 A3025 RMK A01 T01271049  RH  029%=      5-min Rain = 0
KCL2 122109Z 02009KT 13/M05 A3025 RMK A01 T01271050  RH  029%=      5-min Rain = 0
KCL2 122110Z 02006KT 13/M05 A3025 RMK A01 T01271053  RH  028%=      5-min Rain = 0
KCL2 122111Z 05005KT 13/M05 A3025 RMK A01 T01271051  RH  028%=      5-min Rain = 0
KCL2 122112Z 03008KT 13/M05 A3025 RMK A01 T01301046  RH  029%=      5-min Rain = 0
KCL2 122113Z 03008KT 13/M05 A3025 RMK A01 T01321050  RH  028%=      5-min Rain = 0
KCL2 122114Z 03008KT 13/M05 A3025 RMK A01 T01301051  RH  028%=      5-min Rain = 0
KCL2 122115Z 04008KT 13/M05 A3025 RMK A01 T01281048  RH  029%=      5-min Rain = 0
KCL2 122116Z 04006KT 13/M05 A3025 RMK A01 T01281047  RH  029%=      5-min Rain = 0
KCL2 122117Z 02005KT 13/M04 A3025 RMK A01 T01311040  RH  030%=      5-min Rain = 0
KCL2 122118Z 02007KT 13/M04 A3025 RMK A01 T01341042  RH  029%=      5-min Rain = 0
KCL2 122119Z 02007KT 14/M05 A3025 RMK A01 T01351050  RH  027%=      5-min Rain = 0
KCL2 122120Z 04007KT 13/M05 A3025 RMK A01 T01341054  RH  027%=      5-min Rain = 0
KCL2 122121Z 03009KT 13/M05 A3025 RMK A01 T01321049  RH  028%=      5-min Rain = 0
KCL2 122122Z 02007KT 13/M04 A3025 RMK A01 T01331038  RH  030%=      5-min Rain = 0
KCL2 122123Z 02009KT 14/M05 A3025 RMK A01 T01351045  RH  028%=      5-min Rain = 0
KCL2 122124Z 02006KT 13/M05 A3025 RMK A01 T01331047  RH  028%=      5-min Rain = 0
KCL2 122125Z 01003KT 13/M05 A3025 RMK A01 T01321046  RH  029%=      5-min Rain = 0
KCL2 122126Z 36004KT 13/M05 A3025 RMK A01 T01311052  RH  028%=      5-min Rain = 0
KCL2 122127Z 35007KT 13/M05 A3025 RMK A01 T01301053  RH  027%=      5-min Rain = 0
KCL2 122128Z 35007KT 13/M05 A3025 RMK A01 T01301050  RH  028%=      5-min Rain = 0
KCL2 122129Z 35006KT 13/M06 A3025 RMK A01 T01311056  RH  027%=      5-min Rain = 0
KCL2 122130Z 35006KT 13/M06 A3025 RMK A01 T01301056  RH  027%=      5-min Rain = 0
KCL2 122131Z 01004KT 13/M06 A3025 RMK A01 T01301056  RH  027%=      5-min Rain = 0
KCL2 122132Z 03009KT 13/M05 A3025 RMK A01 T01321048  RH  028%=      5-min Rain = 0
KCL2 122133Z 03008KT 13/M05 A3025 RMK A01 T01331045  RH  029%=      5-min Rain = 0
KCL2 122134Z 02007KT 13/M05 A3025 RMK A01 T01331049  RH  028%=      5-min Rain = 0
KCL2 122135Z 02005KT 13/M05 A3025 RMK A01 T01321047  RH  028%=      5-min Rain = 0
KCL2 122136Z 05007KT 13/M05 A3025 RMK A01 T01331045  RH  029%=      5-min Rain = 0
KCL2 122137Z 05004KT 13/M05 A3025 RMK A01 T01321051  RH  028%=      5-min Rain = 0
KCL2 122138Z 04003KT 13/M06 A3025 RMK A01 T01301055  RH  027%=      5-min Rain = 0
KCL2 122139Z 07004KT 13/M05 A3025 RMK A01 T01291052  RH  028%=      5-min Rain = 0
KCL2 122140Z 07004KT 13/M05 A3025 RMK A01 T01291050  RH  028%=      5-min Rain = 0
KCL2 122141Z 07002KT 13/M05 A3025 RMK A01 T01291053  RH  028%=      5-min Rain = 0
KCL2 122142Z 05003KT 13/M05 A3025 RMK A01 T01281050  RH  028%=      5-min Rain = 0
KCL2 122143Z 06004KT 13/M05 A3025 RMK A01 T01291052  RH  028%=      5-min Rain = 0
KCL2 122144Z 06006KT 13/M05 A3025 RMK A01 T01291049  RH  029%=      5-min Rain = 0
KCL2 122145Z 05007KT 13/M05 A3025 RMK A01 T01301049  RH  028%=      5-min Rain = 0
KCL2 122146Z 04006KT 13/M05 A3025 RMK A01 T01311049  RH  028%=      5-min Rain = 0
KCL2 122147Z 03007KT 13/M05 A3025 RMK A01 T01331045  RH  029%=      5-min Rain = 0
KCL2 122148Z 03008KT 13/M05 A3025 RMK A01 T01341048  RH  028%=      5-min Rain = 0
KCL2 122149Z 04007KT 13/M05 A3025 RMK A01 T01331049  RH  028%=      5-min Rain = 0
KCL2 122150Z 03007KT 13/M05 A3025 RMK A01 T01321051  RH  028%=      5-min Rain = 0
KCL2 122151Z 03005KT 13/M06 A3025 RMK A01 T01311057  RH  027%=      5-min Rain = 0
KCL2 122152Z 02004KT 13/M06 A3025 RMK A01 T01301056  RH  027%=      5-min Rain = 0
KCL2 122153Z 03005KT 13/M05 A3025 RMK A01 T01311052  RH  028%=      5-min Rain = 0
KCL2 122154Z 02005KT 13/M05 A3025 RMK A01 T01321051  RH  028%=      5-min Rain = 0
KCL2 122155Z 01005KT 13/M05 A3025 RMK A01 T01331054  RH  027%=      5-min Rain = 0
KCL2 122156Z 01004KT 13/M06 A3025 RMK A01 T01341059  RH  026%=      5-min Rain = 0
KCL2 122157Z 02005KT 13/M06 A3025 RMK A01 T01341060  RH  025%=      5-min Rain = 0
KCL2 122158Z 02004KT 13/M06 A3025 RMK A01 T01341063  RH  025%=      5-min Rain = 0
KCL2 122159Z 02005KT 13/M06 A3025 RMK A01 T01341062  RH  025%=      5-min Rain = 0
KCL2 122200Z 01005KT 13/M06 A3025 RMK A01 T01341059  RH  026%=      5-min Rain = 0
KCL2 122201Z 06006KT 13/M06 A3025 RMK A01 T01341055  RH  026%=      5-min Rain = 0
KCL2 122202Z 07007KT 13/M06 A3025 RMK A01 T01341055  RH  027%=      5-min Rain = 0
KCL2 122203Z 06005KT 13/M06 A3025 RMK A01 T01321056  RH  027%=      5-min Rain = 0
KCL2 122204Z 05005KT 13/M05 A3025 RMK A01 T01311052  RH  028%=      5-min Rain = 0
KCL2 122205Z 08006KT 13/M05 A3025 RMK A01 T01321047  RH  028%=      5-min Rain = 0
KCL2 122206Z 10003KT 13/M05 A3025 RMK A01 T01331052  RH  027%=      5-min Rain = 0
KCL2 122207Z 10004KT 13/M06 A3025 RMK A01 T01331056  RH  027%=      5-min Rain = 0
KCL2 122208Z 07008KT 13/M05 A3025 RMK A01 T01331048  RH  028%=      5-min Rain = 0
KCL2 122209Z 07008KT 13/M05 A3025 RMK A01 T01331051  RH  027%=      5-min Rain = 0
KCL2 122210Z 06008KT 13/M05 A3025 RMK A01 T01321050  RH  028%=      5-min Rain = 0
KCL2 122211Z 05006KT 13/M05 A3025 RMK A01 T01321054  RH  027%=      5-min Rain = 0
KCL2 122212Z 05006KT 13/M05 A3025 RMK A01 T01311053  RH  027%=      5-min Rain = 0
KCL2 122213Z 06009KT 13/M05 A3025 RMK A01 T01321050  RH  028%=      5-min Rain = 0
KCL2 122214Z 06009KT 13/M05 A3025 RMK A01 T01321051  RH  028%=      5-min Rain = 0
KCL2 122215Z 06009KT 13/M05 A3025 RMK A01 T01321052  RH  027%=      5-min Rain = 0
KCL2 122216Z 04006KT 13/M06 A3025 RMK A01 T01311055  RH  027%=      5-min Rain = 0
KCL2 122217Z 04002KT 13/M06 A3025 RMK A01 T01301058  RH  027%=      5-min Rain = 0
KCL2 122218Z 07000KT 13/M06 A3025 RMK A01 T01291058  RH  027%=      5-min Rain = 0
KCL2 122219Z 09001KT 13/M05 A3025 RMK A01 T01301054  RH  027%=      5-min Rain = 0
KCL2 122220Z 09004KT 13/M05 A3025 RMK A01 T01321053  RH  027%=      5-min Rain = 0
KCL2 122221Z 07006KT 13/M05 A3025 RMK A01 T01331054  RH  027%=      5-min Rain = 0
KCL2 122222Z 07006KT 13/M06 A3025 RMK A01 T01311058  RH  026%=      5-min Rain = 0
KCL2 122223Z 06006KT 13/M06 A3025 RMK A01 T01301060  RH  026%=      5-min Rain = 0
KCL2 122224Z 07007KT 13/M06 A3025 RMK A01 T01291059  RH  026%=      5-min Rain = 0
KCL2 122225Z 07003KT 13/M06 A3025 RMK A01 T01271063  RH  026%=      5-min Rain = 0
KCL2 122226Z 08003KT 13/M06 A3025 RMK A01 T01271062  RH  026%=      5-min Rain = 0
KCL2 122227Z 10004KT 13/M06 A3025 RMK A01 T01281060  RH  026%=      5-min Rain = 0
KCL2 122228Z 10004KT 13/M06 A3025 RMK A01 T01291058  RH  027%=      5-min Rain = 0
KCL2 122229Z 09005KT 13/M06 A3025 RMK A01 T01291059  RH  027%=      5-min Rain = 0
KCL2 122230Z 08004KT 13/M06 A3025 RMK A01 T01301059  RH  026%=      5-min Rain = 0
KCL2 122231Z 07004KT 13/M06 A3025 RMK A01 T01291060  RH  026%=      5-min Rain = 0
KCL2 122232Z 08003KT 13/M06 A3025 RMK A01 T01291062  RH  026%=      5-min Rain = 0
KCL2 122233Z 08004KT 13/M06 A3025 RMK A01 T01281059  RH  027%=      5-min Rain = 0
KCL2 122234Z 08004KT 13/M06 A3025 RMK A01 T01291056  RH  027%=      5-min Rain = 0
KCL2 122235Z 07006KT 13/M06 A3025 RMK A01 T01301057  RH  027%=      5-min Rain = 0
KCL2 122236Z 07004KT 13/M06 A3025 RMK A01 T01301061  RH  026%=      5-min Rain = 0
KCL2 122237Z 08004KT 13/M06 A3025 RMK A01 T01281062  RH  026%=      5-min Rain = 0
KCL2 122238Z 07004KT 13/M06 A3025 RMK A01 T01281060  RH  027%=      5-min Rain = 0
KCL2 122239Z 08004KT 13/M06 A3025 RMK A01 T01291057  RH  027%=      5-min Rain = 0
KCL2 122240Z 08004KT 13/M06 A3025 RMK A01 T01291060  RH  026%=      5-min Rain = 0
KCL2 122241Z 07004KT 13/M06 A3025 RMK A01 T01291060  RH  026%=      5-min Rain = 0
KCL2 122242Z 09005KT 13/M06 A3025 RMK A01 T01291060  RH  026%=      5-min Rain = 0
KCL2 122243Z 10005KT 13/M05 A3025 RMK A01 T01291052  RH  028%=      5-min Rain = 0
KCL2 122244Z 10005KT 13/M05 A3025 RMK A01 T01311051  RH  028%=      5-min Rain = 0
KCL2 122245Z 09004KT 13/M05 A3025 RMK A01 T01311052  RH  028%=      5-min Rain = 0
KCL2 122246Z 09004KT 13/M06 A3025 RMK A01 T01311056  RH  027%=      5-min Rain = 0
KCL2 122247Z 10005KT 13/M05 A3025 RMK A01 T01301051  RH  028%=      5-min Rain = 0
KCL2 122248Z 11006KT 13/M05 A3025 RMK A01 T01301051  RH  028%=      5-min Rain = 0
KCL2 122249Z 11005KT 13/M05 A3025 RMK A01 T01311052  RH  028%=      5-min Rain = 0
KCL2 122250Z 10002KT 13/M06 A3025 RMK A01 T01311055  RH  027%=      5-min Rain = 0
KCL2 122251Z 05003KT 13/M06 A3025 RMK A01 T01301056  RH  027%=      5-min Rain = 0
KCL2 122252Z 05005KT 13/M05 A3025 RMK A01 T01291054  RH  027%=      5-min Rain = 0
KCL2 122253Z 06005KT 13/M05 A3025 RMK A01 T01291053  RH  028%=      5-min Rain = 0
KCL2 122254Z 06005KT 13/M05 A3025 RMK A01 T01291054  RH  028%=      5-min Rain = 0
KCL2 122255Z 07007KT 13/M05 A3026 RMK A01 T01291054  RH  028%=      5-min Rain = 0
KCL2 122256Z 07006KT 13/M06 A3026 RMK A01 T01281058  RH  027%=      5-min Rain = 0
KCL2 122257Z 08005KT 13/M06 A3026 RMK A01 T01261058  RH  027%=      5-min Rain = 0
KCL2 122258Z 07006KT 13/M06 A3026 RMK A01 T01261055  RH  028%=      5-min Rain = 0
KCL2 122259Z 06005KT 13/M06 A3026 RMK A01 T01261055  RH  028%=      5-min Rain = 0
KCL2 122300Z 07004KT 13/M05 A3026 RMK A01 T01261053  RH  028%=      5-min Rain = 0
KCL2 122301Z 07005KT 13/M05 A3026 RMK A01 T01271054  RH  028%=      5-min Rain = 0
KCL2 122302Z 09004KT 13/M05 A3025 RMK A01 T01261049  RH  029%=      5-min Rain = 0
KCL2 122303Z 11005KT 13/M05 A3026 RMK A01 T01261052  RH  028%=      5-min Rain = 0
KCL2 122304Z 11007KT 13/M05 A3025 RMK A01 T01271049  RH  029%=      5-min Rain = 0
KCL2 122305Z 08006KT 13/M05 A3025 RMK A01 T01271049  RH  029%=      5-min Rain = 0
KCL2 122306Z 08005KT 13/M05 A3026 RMK A01 T01271046  RH  030%=      5-min Rain = 0
KCL2 122307Z 08005KT 13/M05 A3026 RMK A01 T01261051  RH  029%=      5-min Rain = 0
KCL2 122308Z 09005KT 13/M05 A3026 RMK A01 T01261049  RH  029%=      5-min Rain = 0
KCL2 122309Z 10004KT 13/M04 A3026 RMK A01 T01261044  RH  030%=      5-min Rain = 0
KCL2 122310Z 07005KT 13/M05 A3026 RMK A01 T01251050  RH  029%=      5-min Rain = 0
KCL2 122311Z 08005KT 12/M06 A3026 RMK A01 T01241055  RH  028%=      5-min Rain = 0
KCL2 122312Z 09004KT 12/M06 A3026 RMK A01 T01241057  RH  028%=      5-min Rain = 0
KCL2 122313Z 10004KT 12/M05 A3026 RMK A01 T01241049  RH  030%=      5-min Rain = 0
KCL2 122314Z 10004KT 12/M05 A3026 RMK A01 T01241047  RH  030%=      5-min Rain = 0
KCL2 122315Z 10004KT 13/M05 A3026 RMK A01 T01251049  RH  029%=      5-min Rain = 0
KCL2 122316Z 09004KT 13/M05 A3026 RMK A01 T01251054  RH  028%=      5-min Rain = 0
KCL2 122317Z 07004KT 12/M06 A3026 RMK A01 T01241055  RH  028%=      5-min Rain = 0
KCL2 122318Z 09007KT 12/M05 A3026 RMK A01 T01241053  RH  029%=      5-min Rain = 0
KCL2 122319Z 10007KT 12/M05 A3026 RMK A01 T01231045  RH  031%=      5-min Rain = 0
KCL2 122320Z 09007KT 12/M05 A3026 RMK A01 T01221048  RH  030%=      5-min Rain = 0
KCL2 122321Z 10006KT 12/M05 A3026 RMK A01 T01211050  RH  030%=      5-min Rain = 0
KCL2 122322Z 10006KT 12/M05 A3026 RMK A01 T01211051  RH  030%=      5-min Rain = 0
KCL2 122323Z 10005KT 12/M05 A3026 RMK A01 T01201053  RH  029%=      5-min Rain = 0
KCL2 122324Z 10006KT 12/M05 A3026 RMK A01 T01201049  RH  030%=      5-min Rain = 0
KCL2 122325Z 08006KT 12/M05 A3026 RMK A01 T01201046  RH  031%=      5-min Rain = 0
KCL2 122326Z 09006KT 12/M05 A3026 RMK A01 T01201048  RH  031%=      5-min Rain = 0
KCL2 122327Z 10004KT 12/M05 A3026 RMK A01 T01201048  RH  031%=      5-min Rain = 0
KCL2 122328Z 10006KT 12/M04 A3026 RMK A01 T01191044  RH  031%=      5-min Rain = 0
KCL2 122329Z 09005KT 12/M05 A3026 RMK A01 T01191047  RH  031%=      5-min Rain = 0
KCL2 122330Z 10006KT 12/M05 A3026 RMK A01 T01191045  RH  031%=      5-min Rain = 0
KCL2 122331Z 10006KT 12/M05 A3026 RMK A01 T01181048  RH  031%=      5-min Rain = 0
KCL2 122332Z 09006KT 12/M05 A3026 RMK A01 T01181050  RH  031%=      5-min Rain = 0
KCL2 122333Z 10005KT 12/M05 A3026 RMK A01 T01181048  RH  031%=      5-min Rain = 0
KCL2 122334Z 11004KT 12/M05 A3026 RMK A01 T01181048  RH  031%=      5-min Rain = 0
KCL2 122335Z 10005KT 12/M05 A3026 RMK A01 T01181049  RH  031%=      5-min Rain = 0
KCL2 122336Z 10005KT 12/M05 A3026 RMK A01 T01181047  RH  031%=      5-min Rain = 0
KCL2 122337Z 10006KT 12/M04 A3026 RMK A01 T01171041  RH  033%=      5-min Rain = 0
KCL2 122338Z 10006KT 12/M04 A3026 RMK A01 T01161042  RH  033%=      5-min Rain = 0
KCL2 122339Z 10007KT 12/M04 A3026 RMK A01 T01151043  RH  033%=      5-min Rain = 0
KCL2 122340Z 10007KT 12/M04 A3026 RMK A01 T01151044  RH  033%=      5-min Rain = 0
KCL2 122341Z 10006KT 11/M05 A3026 RMK A01 T01141049  RH  031%=      5-min Rain = 0
KCL2 122342Z 09006KT 11/M05 A3026 RMK A01 T01141049  RH  032%=      5-min Rain = 0
KCL2 122343Z 09006KT 11/M05 A3026 RMK A01 T01141048  RH  032%=      5-min Rain = 0
KCL2 122344Z 09005KT 11/M05 A3026 RMK A01 T01141045  RH  033%=      5-min Rain = 0
KCL2 122345Z 09005KT 11/M04 A3026 RMK A01 T01131044  RH  033%=      5-min Rain = 0
KCL2 122346Z 10006KT 11/M04 A3026 RMK A01 T01121044  RH  033%=      5-min Rain = 0
KCL2 122347Z 09006KT 11/M04 A3026 RMK A01 T01121043  RH  033%=      5-min Rain = 0
KCL2 122348Z 10005KT 11/M04 A3026 RMK A01 T01111042  RH  034%=      5-min Rain = 0
KCL2 122349Z 10005KT 11/M04 A3026 RMK A01 T01111044  RH  033%=      5-min Rain = 0
KCL2 122350Z 10004KT 11/M04 A3026 RMK A01 T01111043  RH  034%=      5-min Rain = 0
KCL2 122351Z 09004KT 11/M04 A3026 RMK A01 T01101043  RH  034%=      5-min Rain = 0
KCL2 122352Z 09005KT 11/M04 A3026 RMK A01 T01091044  RH  034%=      5-min Rain = 0
KCL2 122353Z 09006KT 11/M04 A3026 RMK A01 T01091044  RH  034%=      5-min Rain = 0
KCL2 122354Z 09005KT 11/M05 A3026 RMK A01 T01081046  RH  034%=      5-min Rain = 0
KCL2 122355Z 09005KT 11/M04 A3026 RMK A01 T01081043  RH  034%=      5-min Rain = 0
KCL2 122356Z 09005KT 11/M04 A3026 RMK A01 T01071043  RH  034%=      5-min Rain = 0
KCL2 122357Z 09005KT 11/M05 A3026 RMK A01 T01071045  RH  034%=      5-min Rain = 0
KCL2 122358Z 10004KT 11/M05 A3026 RMK A01 T01071045  RH  034%=      5-min Rain = 0
KCL2 122359Z 09005KT 11/M04 A3026 RMK A01 T01071041  RH  035%=      5-min Rain = 0
KCL2 130000Z 10005KT 11/M04 A3026 RMK A01 T01051042  RH  035%=      5-min Rain = 0
KCL2 130001Z 09005KT 10/M04 A3026 RMK A01 T01041044  RH  035%=      5-min Rain = 0
KCL2 130002Z 09004KT 10/M05 A3026 RMK A01 T01041046  RH  034%=      5-min Rain = 0
KCL2 130003Z 09004KT 10/M05 A3026 RMK A01 T01041046  RH  034%=      5-min Rain = 0
KCL2 130004Z 10004KT 10/M05 A3026 RMK A01 T01041046  RH  034%=      5-min Rain = 0
KCL2 130005Z 10005KT 10/M05 A3027 RMK A01 T01041045  RH  035%=      5-min Rain = 0
KCL2 130006Z 10004KT 10/M05 A3027 RMK A01 T01041045  RH  035%=      5-min Rain = 0
KCL2 130007Z 10004KT 10/M05 A3027 RMK A01 T01031045  RH  035%=      5-min Rain = 0
KCL2 130008Z 10004KT 10/M05 A3027 RMK A01 T01031046  RH  035%=      5-min Rain = 0
KCL2 130009Z 10004KT 10/M05 A3027 RMK A01 T01021047  RH  035%=      5-min Rain = 0
KCL2 130010Z 10005KT 10/M05 A3027 RMK A01 T01021047  RH  035%=      5-min Rain = 0
KCL2 130011Z 10005KT 10/M05 A3027 RMK A01 T01011048  RH  035%=      5-min Rain = 0
KCL2 130012Z 10004KT 10/M05 A3027 RMK A01 T01011048  RH  035%=      5-min Rain = 0
KCL2 130013Z 10005KT 10/M05 A3027 RMK A01 T01001049  RH  035%=      5-min Rain = 0
KCL2 130014Z 11004KT 10/M05 A3027 RMK A01 T01001048  RH  035%=      5-min Rain = 0
KCL2 130015Z 11004KT 10/M05 A3027 RMK A01 T00991050  RH  035%=      5-min Rain = 0
KCL2 130016Z 12004KT 10/M05 A3027 RMK A01 T00971050  RH  035%=      5-min Rain = 0
KCL2 130017Z 12004KT 10/M05 A3027 RMK A01 T00951050  RH  035%=      5-min Rain = 0
KCL2 130018Z 12004KT 10/M05 A3027 RMK A01 T00951049  RH  036%=      5-min Rain = 0
KCL2 130019Z 12004KT 10/M05 A3027 RMK A01 T00951048  RH  036%=      5-min Rain = 0
KCL2 130020Z 12004KT 10/M05 A3027 RMK A01 T00951050  RH  036%=      5-min Rain = 0
KCL2 130021Z 12004KT 10/M05 A3027 RMK A01 T00961050  RH  035%=      5-min Rain = 0
KCL2 130022Z 12005KT 10/M05 A3027 RMK A01 T00961050  RH  035%=      5-min Rain = 0
KCL2 130023Z 12005KT 10/M05 A3027 RMK A01 T00951050  RH  036%=      5-min Rain = 0
KCL2 130024Z 12005KT 09/M05 A3027 RMK A01 T00941050  RH  036%=      5-min Rain = 0
KCL2 130025Z 13005KT 09/M05 A3027 RMK A01 T00921049  RH  036%=      5-min Rain = 0
KCL2 130026Z 12005KT 09/M05 A3027 RMK A01 T00911050  RH  037%=      5-min Rain = 0
KCL2 130027Z 12005KT 09/M05 A3027 RMK A01 T00911050  RH  037%=      5-min Rain = 0
KCL2 130028Z 12005KT 09/M05 A3027 RMK A01 T00901049  RH  037%=      5-min Rain = 0
KCL2 130029Z 12005KT 09/M05 A3027 RMK A01 T00901048  RH  037%=      5-min Rain = 0
KCL2 130030Z 13004KT 09/M05 A3028 RMK A01 T00891048  RH  038%=      5-min Rain = 0
KCL2 130031Z 12004KT 09/M05 A3028 RMK A01 T00891049  RH  038%=      5-min Rain = 0
KCL2 130032Z 12004KT 09/M05 A3028 RMK A01 T00891048  RH  038%=      5-min Rain = 0
KCL2 130033Z 12004KT 09/M05 A3028 RMK A01 T00891049  RH  037%=      5-min Rain = 0
KCL2 130034Z 12004KT 09/M05 A3028 RMK A01 T00891049  RH  037%=      5-min Rain = 0
KCL2 130035Z 12004KT 09/M05 A3028 RMK A01 T00881049  RH  038%=      5-min Rain = 0
KCL2 130036Z 12004KT 09/M05 A3028 RMK A01 T00891048  RH  038%=      5-min Rain = 0
KCL2 130037Z 12004KT 09/M05 A3028 RMK A01 T00881048  RH  038%=      5-min Rain = 0
KCL2 130038Z 12004KT 09/M05 A3028 RMK A01 T00881047  RH  038%=      5-min Rain = 0
KCL2 130039Z 11004KT 09/M05 A3028 RMK A01 T00871047  RH  038%=      5-min Rain = 0
KCL2 130040Z 11004KT 09/M05 A3028 RMK A01 T00871049  RH  038%=      5-min Rain = 0
KCL2 130041Z 11004KT 09/M05 A3028 RMK A01 T00881050  RH  037%=      5-min Rain = 0
KCL2 130042Z 11004KT 09/M05 A3028 RMK A01 T00891050  RH  037%=      5-min Rain = 0
KCL2 130043Z 11004KT 09/M05 A3028 RMK A01 T00891048  RH  037%=      5-min Rain = 0
KCL2 130044Z 12004KT 09/M05 A3028 RMK A01 T00881047  RH  038%=      5-min Rain = 0
KCL2 130045Z 12004KT 09/M05 A3028 RMK A01 T00881048  RH  038%=      5-min Rain = 0
KCL2 130046Z 12004KT 09/M05 A3028 RMK A01 T00871048  RH  038%=      5-min Rain = 0
KCL2 130047Z 13004KT 09/M05 A3028 RMK A01 T00861047  RH  038%=      5-min Rain = 0
KCL2 130048Z 13004KT 09/M05 A3028 RMK A01 T00861048  RH  038%=      5-min Rain = 0
KCL2 130049Z 12004KT 09/M05 A3028 RMK A01 T00861049  RH  038%=      5-min Rain = 0
KCL2 130050Z 12004KT 09/M05 A3028 RMK A01 T00861049  RH  038%=      5-min Rain = 0
KCL2 130051Z 12004KT 09/M05 A3028 RMK A01 T00861049  RH  038%=      5-min Rain = 0
KCL2 130052Z 12004KT 09/M05 A3028 RMK A01 T00861050  RH  038%=      5-min Rain = 0
KCL2 130053Z 12004KT 09/M05 A3028 RMK A01 T00861049  RH  038%=      5-min Rain = 0
KCL2 130054Z 12004KT 09/M05 A3028 RMK A01 T00861049  RH  038%=      5-min Rain = 0
KCL2 130055Z 12004KT 09/M05 A3028 RMK A01 T00861048  RH  038%=      5-min Rain = 0
KCL2 130056Z 12004KT 09/M05 A3028 RMK A01 T00851048  RH  038%=      5-min Rain = 0
KCL2 130057Z 12004KT 08/M05 A3028 RMK A01 T00841048  RH  039%=      5-min Rain = 0
KCL2 130058Z 12005KT 08/M05 A3028 RMK A01 T00831047  RH  039%=      5-min Rain = 0
KCL2 130059Z 12005KT 08/M05 A3028 RMK A01 T00821047  RH  039%=      5-min Rain = 0
KCL2 130100Z 12005KT 08/M05 A3028 RMK A01 T00821048  RH  039%=      5-min Rain = 0
KCL2 130101Z 12004KT 08/M05 A3028 RMK A01 T00821048  RH  039%=      5-min Rain = 0
KCL2 130102Z 12004KT 08/M05 A3028 RMK A01 T00811048  RH  040%=      5-min Rain = 0
KCL2 130103Z 12004KT 08/M05 A3028 RMK A01 T00801048  RH  040%=      5-min Rain = 0
KCL2 130104Z 13005KT 08/M05 A3028 RMK A01 T00801046  RH  041%=      5-min Rain = 0
KCL2 130105Z 13005KT 08/M05 A3028 RMK A01 T00781046  RH  041%=      5-min Rain = 0
KCL2 130106Z 13005KT 08/M05 A3028 RMK A01 T00781047  RH  041%=      5-min Rain = 0
KCL2 130107Z 13004KT 08/M05 A3028 RMK A01 T00781047  RH  041%=      5-min Rain = 0
KCL2 130108Z 13005KT 08/M05 A3028 RMK A01 T00791046  RH  041%=      5-min Rain = 0
KCL2 130109Z 13005KT 08/M05 A3028 RMK A01 T00781046  RH  041%=      5-min Rain = 0
KCL2 130110Z 13005KT 08/M05 A3028 RMK A01 T00781046  RH  041%=      5-min Rain = 0
KCL2 130111Z 13005KT 08/M05 A3028 RMK A01 T00781046  RH  041%=      5-min Rain = 0
KCL2 130112Z 12005KT 08/M05 A3028 RMK A01 T00781045  RH  041%=      5-min Rain = 0
KCL2 130113Z 12005KT 08/M05 A3028 RMK A01 T00781045  RH  041%=      5-min Rain = 0
KCL2 130114Z 12005KT 08/M05 A3028 RMK A01 T00771045  RH  042%=      5-min Rain = 0
KCL2 130115Z 12005KT 08/M04 A3028 RMK A01 T00771044  RH  042%=      5-min Rain = 0
KCL2 130116Z 13005KT 08/M05 A3028 RMK A01 T00761045  RH  042%=      5-min Rain = 0
KCL2 130117Z 12006KT 08/M05 A3028 RMK A01 T00761045  RH  042%=      5-min Rain = 0
KCL2 130118Z 12005KT 07/M04 A3028 RMK A01 T00741043  RH  043%=      5-min Rain = 0
KCL2 130119Z 13005KT 07/M04 A3028 RMK A01 T00711043  RH  044%=      5-min Rain = 0
KCL2 130120Z 13005KT 07/M04 A3028 RMK A01 T00691043  RH  045%=      5-min Rain = 0
KCL2 130121Z 13005KT 07/M04 A3028 RMK A01 T00681043  RH  045%=      5-min Rain = 0
KCL2 130122Z 13005KT 07/M05 A3028 RMK A01 T00681045  RH  044%=      5-min Rain = 0
KCL2 130123Z 13006KT 07/M05 A3028 RMK A01 T00691045  RH  044%=      5-min Rain = 0
KCL2 130124Z 13006KT 07/M05 A3028 RMK A01 T00691045  RH  044%=      5-min Rain = 0
KCL2 130125Z 12006KT 07/M05 A3029 RMK A01 T00691046  RH  044%=      5-min Rain = 0
KCL2 130126Z 12006KT 07/M05 A3029 RMK A01 T00691046  RH  044%=      5-min Rain = 0
KCL2 130127Z 12006KT 07/M05 A3029 RMK A01 T00691045  RH  044%=      5-min Rain = 0
KCL2 130128Z 12006KT 07/M05 A3029 RMK A01 T00681046  RH  044%=      5-min Rain = 0
KCL2 130129Z 12006KT 07/M05 A3029 RMK A01 T00671046  RH  044%=      5-min Rain = 0
KCL2 130130Z 12006KT 07/M05 A3029 RMK A01 T00671046  RH  044%=      5-min Rain = 0
KCL2 130131Z 12006KT 07/M05 A3029 RMK A01 T00671048  RH  044%=      5-min Rain = 0
KCL2 130132Z 13006KT 07/M05 A3029 RMK A01 T00671048  RH  044%=      5-min Rain = 0
KCL2 130133Z 13006KT 07/M05 A3029 RMK A01 T00671047  RH  044%=      5-min Rain = 0
KCL2 130134Z 13006KT 07/M05 A3029 RMK A01 T00671045  RH  045%=      5-min Rain = 0
KCL2 130135Z 13006KT 07/M05 A3029 RMK A01 T00661046  RH  044%=      5-min Rain = 0
KCL2 130136Z 13006KT 07/M05 A3029 RMK A01 T00671047  RH  044%=      5-min Rain = 0
KCL2 130137Z 14006KT 07/M05 A3029 RMK A01 T00671048  RH  044%=      5-min Rain = 0
KCL2 130138Z 14006KT 07/M05 A3029 RMK A01 T00681048  RH  043%=      5-min Rain = 0
KCL2 130139Z 13006KT 07/M05 A3029 RMK A01 T00691048  RH  043%=      5-min Rain = 0
KCL2 130140Z 13006KT 07/M05 A3029 RMK A01 T00691048  RH  043%=      5-min Rain = 0
KCL2 130141Z 13006KT 07/M05 A3029 RMK A01 T00681047  RH  043%=      5-min Rain = 0
KCL2 130142Z 13006KT 07/M05 A3029 RMK A01 T00681047  RH  044%=      5-min Rain = 0
KCL2 130143Z 14006KT 07/M05 A303 RMK A01 T00671047  RH  044%=      5-min Rain = 0
KCL2 130144Z 14006KT 07/M05 A303 RMK A01 T00671047  RH  044%=      5-min Rain = 0
KCL2 130145Z 14006KT 07/M05 A303 RMK A01 T00681047  RH  044%=      5-min Rain = 0
KCL2 130146Z 14006KT 07/M05 A303 RMK A01 T00681049  RH  043%=      5-min Rain = 0
KCL2 130147Z 14006KT 07/M05 A303 RMK A01 T00691049  RH  043%=      5-min Rain = 0
KCL2 130148Z 14006KT 07/M05 A303 RMK A01 T00711050  RH  042%=      5-min Rain = 0
KCL2 130149Z 15006KT 07/M05 A303 RMK A01 T00731051  RH  041%=      5-min Rain = 0
KCL2 130150Z 15006KT 07/M05 A303 RMK A01 T00741051  RH  041%=      5-min Rain = 0
KCL2 130151Z 15006KT 07/M05 A303 RMK A01 T00741052  RH  040%=      5-min Rain = 0
KCL2 130152Z 14006KT 08/M05 A303 RMK A01 T00751052  RH  040%=      5-min Rain = 0
KCL2 130153Z 14006KT 08/M05 A303 RMK A01 T00751053  RH  040%=      5-min Rain = 0
KCL2 130154Z 14007KT 08/M05 A303 RMK A01 T00761053  RH  040%=      5-min Rain = 0
KCL2 130155Z 14007KT 08/M05 A303 RMK A01 T00761052  RH  040%=      5-min Rain = 0
KCL2 130156Z 14007KT 08/M05 A303 RMK A01 T00751049  RH  041%=      5-min Rain = 0
KCL2 130157Z 13007KT 07/M05 A303 RMK A01 T00731049  RH  042%=      5-min Rain = 0
KCL2 130158Z 13007KT 07/M05 A303 RMK A01 T00711049  RH  042%=      5-min Rain = 0
KCL2 130159Z 13007KT 07/M05 A303 RMK A01 T00701048  RH  043%=      5-min Rain = 0
KCL2 130200Z 13007KT 07/M05 A303 RMK A01 T00681047  RH  044%=      5-min Rain = 0
KCL2 130201Z 13006KT 07/M05 A303 RMK A01 T00671046  RH  044%=      5-min Rain = 0
KCL2 130202Z 13007KT 07/M05 A303 RMK A01 T00651046  RH  045%=      5-min Rain = 0
KCL2 130203Z 13007KT 06/M05 A303 RMK A01 T00631047  RH  045%=      5-min Rain = 0
KCL2 130204Z 14007KT 06/M05 A303 RMK A01 T00631049  RH  045%=      5-min Rain = 0
KCL2 130205Z 14007KT 07/M05 A303 RMK A01 T00651049  RH  044%=      5-min Rain = 0
KCL2 130206Z 14007KT 07/M05 A303 RMK A01 T00681049  RH  043%=      5-min Rain = 0
KCL2 130207Z 14007KT 07/M05 A3031 RMK A01 T00691049  RH  042%=      5-min Rain = 0
KCL2 130208Z 14007KT 07/M05 A3031 RMK A01 T00701051  RH  042%=      5-min Rain = 0
KCL2 130209Z 14006KT 07/M05 A3031 RMK A01 T00721052  RH  041%=      5-min Rain = 0
KCL2 130210Z 14006KT 07/M05 A3031 RMK A01 T00741052  RH  040%=      5-min Rain = 0
KCL2 130211Z 14006KT 07/M05 A3031 RMK A01 T00741052  RH  040%=      5-min Rain = 0
KCL2 130212Z 14006KT 07/M05 A3031 RMK A01 T00731052  RH  041%=      5-min Rain = 0
KCL2 130213Z 14006KT 07/M05 A3031 RMK A01 T00721051  RH  041%=      5-min Rain = 0
KCL2 130214Z 14007KT 07/M05 A3031 RMK A01 T00691051  RH  042%=      5-min Rain = 0
KCL2 130215Z 14007KT 07/M05 A3031 RMK A01 T00681051  RH  042%=      5-min Rain = 0
KCL2 130216Z 14007KT 07/M05 A3031 RMK A01 T00671051  RH  043%=      5-min Rain = 0
KCL2 130217Z 14007KT 07/M05 A303 RMK A01 T00661052  RH  043%=      5-min Rain = 0
KCL2 130218Z 14008KT 07/M05 A303 RMK A01 T00661051  RH  043%=      5-min Rain = 0
KCL2 130219Z 13008KT 07/M05 A303 RMK A01 T00661051  RH  043%=      5-min Rain = 0
KCL2 130220Z 14008KT 07/M05 A303 RMK A01 T00671051  RH  043%=      5-min Rain = 0
KCL2 130221Z 14008KT 07/M05 A3031 RMK A01 T00671052  RH  042%=      5-min Rain = 0
KCL2 130222Z 14007KT 07/M05 A3031 RMK A01 T00681053  RH  042%=      5-min Rain = 0
KCL2 130223Z 14007KT 07/M05 A3031 RMK A01 T00691053  RH  042%=      5-min Rain = 0
KCL2 130224Z 14007KT 07/M05 A3031 RMK A01 T00691053  RH  042%=      5-min Rain = 0
KCL2 130225Z 14007KT 07/M05 A3031 RMK A01 T00691052  RH  042%=      5-min Rain = 0
KCL2 130226Z 14007KT 07/M05 A3031 RMK A01 T00691053  RH  042%=      5-min Rain = 0
KCL2 130227Z 14007KT 07/M05 A3031 RMK A01 T00691053  RH  041%=      5-min Rain = 0
KCL2 130228Z 14007KT 07/M05 A3031 RMK A01 T00691053  RH  042%=      5-min Rain = 0
KCL2 130229Z 14007KT 07/M05 A3031 RMK A01 T00691053  RH  041%=      5-min Rain = 0
KCL2 130230Z 14007KT 07/M05 A3031 RMK A01 T00681053  RH  042%=      5-min Rain = 0
KCL2 130231Z 14007KT 07/M05 A3031 RMK A01 T00681053  RH  042%=      5-min Rain = 0
KCL2 130232Z 14007KT 07/M05 A3031 RMK A01 T00681054  RH  042%=      5-min Rain = 0
KCL2 130233Z 14007KT 07/M05 A3031 RMK A01 T00681054  RH  042%=      5-min Rain = 0
KCL2 130234Z 14008KT 07/M05 A3031 RMK A01 T00671053  RH  042%=      5-min Rain = 0
KCL2 130235Z 14008KT 07/M05 A3031 RMK A01 T00661053  RH  042%=      5-min Rain = 0
KCL2 130236Z 14008KT 07/M05 A3031 RMK A01 T00651053  RH  042%=      5-min Rain = 0
KCL2 130237Z 14008KT 07/M05 A303 RMK A01 T00651053  RH  043%=      5-min Rain = 0
KCL2 130238Z 14007KT 07/M05 A303 RMK A01 T00651053  RH  043%=      5-min Rain = 0
KCL2 130239Z 14008KT 07/M05 A303 RMK A01 T00651053  RH  043%=      5-min Rain = 0
KCL2 130240Z 14008KT 07/M05 A303 RMK A01 T00651054  RH  042%=      5-min Rain = 0
KCL2 130241Z 14008KT 07/M06 A303 RMK A01 T00661055  RH  042%=      5-min Rain = 0
KCL2 130242Z 14008KT 07/M06 A303 RMK A01 T00671055  RH  042%=      5-min Rain = 0
KCL2 130243Z 14008KT 07/M05 A303 RMK A01 T00671053  RH  042%=      5-min Rain = 0
KCL2 130244Z 14008KT 07/M05 A303 RMK A01 T00661054  RH  042%=      5-min Rain = 0
KCL2 130245Z 14008KT 07/M05 A303 RMK A01 T00661054  RH  042%=      5-min Rain = 0
KCL2 130246Z 14008KT 07/M06 A303 RMK A01 T00661055  RH  042%=      5-min Rain = 0
KCL2 130247Z 14008KT 07/M06 A303 RMK A01 T00661055  RH  042%=      5-min Rain = 0
KCL2 130248Z 14008KT 07/M06 A303 RMK A01 T00661055  RH  042%=      5-min Rain = 0
KCL2 130249Z 14008KT 07/M06 A303 RMK A01 T00661055  RH  042%=      5-min Rain = 0
KCL2 130250Z 14007KT 07/M06 A303 RMK A01 T00661055  RH  042%=      5-min Rain = 0
KCL2 130251Z 14008KT 07/M06 A303 RMK A01 T00661055  RH  042%=      5-min Rain = 0
KCL2 130252Z 15008KT 07/M06 A303 RMK A01 T00651055  RH  042%=      5-min Rain = 0
KCL2 130253Z 15008KT 07/M06 A303 RMK A01 T00651056  RH  042%=      5-min Rain = 0
KCL2 130254Z 14008KT 07/M06 A303 RMK A01 T00661056  RH  042%=      5-min Rain = 0
KCL2 130255Z 15008KT 07/M06 A3029 RMK A01 T00661056  RH  042%=      5-min Rain = 0
KCL2 130256Z 14008KT 07/M06 A3029 RMK A01 T00661056  RH  042%=      5-min Rain = 0
KCL2 130257Z 14008KT 07/M06 A3029 RMK A01 T00661055  RH  042%=      5-min Rain = 0
KCL2 130258Z 14008KT 07/M06 A3029 RMK A01 T00651055  RH  042%=      5-min Rain = 0
KCL2 130259Z 14008KT 07/M06 A3029 RMK A01 T00651056  RH  042%=      5-min Rain = 0
KCL2 130300Z 14008KT 07/M06 A3029 RMK A01 T00651056  RH  042%=      5-min Rain = 0
KCL2 130301Z 14008KT 07/M06 A3029 RMK A01 T00651055  RH  042%=      5-min Rain = 0
KCL2 130302Z 14008KT 07/M05 A3029 RMK A01 T00651054  RH  042%=      5-min Rain = 0
KCL2 130303Z 14008KT 06/M05 A3029 RMK A01 T00641054  RH  043%=      5-min Rain = 0
KCL2 130304Z 14008KT 06/M05 A3029 RMK A01 T00641054  RH  043%=      5-min Rain = 0
KCL2 130305Z 14008KT 06/M05 A3029 RMK A01 T00631054  RH  043%=      5-min Rain = 0
KCL2 130306Z 14008KT 06/M06 A3029 RMK A01 T00631055  RH  043%=      5-min Rain = 0
KCL2 130307Z 14008KT 06/M06 A3029 RMK A01 T00621055  RH  043%=      5-min Rain = 0
KCL2 130308Z 14008KT 06/M06 A3029 RMK A01 T00621055  RH  043%=      5-min Rain = 0
KCL2 130309Z 15007KT 06/M06 A3029 RMK A01 T00631055  RH  043%=      5-min Rain = 0
KCL2 130310Z 15007KT 06/M06 A3029 RMK A01 T00621055  RH  043%=      5-min Rain = 0
KCL2 130311Z 15008KT 06/M06 A3029 RMK A01 T00621056  RH  043%=      5-min Rain = 0
KCL2 130312Z 15008KT 06/M06 A3029 RMK A01 T00621056  RH  043%=      5-min Rain = 0
KCL2 130313Z 15008KT 06/M06 A3029 RMK A01 T00621056  RH  042%=      5-min Rain = 0
KCL2 130314Z 15008KT 06/M06 A3029 RMK A01 T00621056  RH  042%=      5-min Rain = 0
KCL2 130315Z 15008KT 06/M06 A3029 RMK A01 T00621056  RH  042%=      5-min Rain = 0
KCL2 130316Z 15008KT 06/M06 A3029 RMK A01 T00621057  RH  042%=      5-min Rain = 0
KCL2 130317Z 15008KT 06/M06 A3029 RMK A01 T00621056  RH  043%=      5-min Rain = 0
KCL2 130318Z 15007KT 06/M06 A3029 RMK A01 T00621055  RH  043%=      5-min Rain = 0
KCL2 130319Z 15007KT 06/M06 A3029 RMK A01 T00611056  RH  043%=      5-min Rain = 0
KCL2 130320Z 15008KT 06/M06 A3029 RMK A01 T00601056  RH  043%=      5-min Rain = 0
KCL2 130321Z 15007KT 06/M06 A3029 RMK A01 T00591056  RH  043%=      5-min Rain = 0
KCL2 130322Z 15008KT 06/M06 A3029 RMK A01 T00591056  RH  043%=      5-min Rain = 0
KCL2 130323Z 15008KT 06/M06 A3029 RMK A01 T00591056  RH  043%=      5-min Rain = 0
KCL2 130324Z 15008KT 06/M06 A3029 RMK A01 T00601056  RH  043%=      5-min Rain = 0
KCL2 130325Z 15008KT 06/M06 A3029 RMK A01 T00611056  RH  043%=      5-min Rain = 0
KCL2 130326Z 15008KT 06/M06 A3029 RMK A01 T00611055  RH  043%=      5-min Rain = 0
KCL2 130327Z 15008KT 06/M06 A3029 RMK A01 T00611055  RH  043%=      5-min Rain = 0
KCL2 130328Z 15008KT 06/M06 A3029 RMK A01 T00601055  RH  043%=      5-min Rain = 0
KCL2 130329Z 15008KT 06/M06 A3028 RMK A01 T00611055  RH  043%=      5-min Rain = 0
KCL2 130330Z 15008KT 06/M06 A3028 RMK A01 T00601056  RH  043%=      5-min Rain = 0
KCL2 130331Z 15008KT 06/M06 A3028 RMK A01 T00611055  RH  043%=      5-min Rain = 0
KCL2 130332Z 15009KT 06/M06 A3028 RMK A01 T00601055  RH  044%=      5-min Rain = 0
KCL2 130333Z 15009KT 06/M06 A3028 RMK A01 T00601055  RH  044%=      5-min Rain = 0
KCL2 130334Z 15010KT 06/M05 A3028 RMK A01 T00591054  RH  044%=      5-min Rain = 0
KCL2 130335Z 15009KT 06/M05 A3028 RMK A01 T00591054  RH  044%=      5-min Rain = 0
KCL2 130336Z 15009KT 06/M06 A3028 RMK A01 T00601055  RH  044%=      5-min Rain = 0
KCL2 130337Z 15008KT 06/M06 A3028 RMK A01 T00611055  RH  043%=      5-min Rain = 0
KCL2 130338Z 15008KT 06/M05 A3028 RMK A01 T00611054  RH  043%=      5-min Rain = 0
KCL2 130339Z 15009KT 06/M05 A3028 RMK A01 T00611054  RH  044%=      5-min Rain = 0
KCL2 130340Z 15009KT 06/M05 A3028 RMK A01 T00601054  RH  044%=      5-min Rain = 0
KCL2 130341Z 15009KT 06/M05 A3028 RMK A01 T00601054  RH  044%=      5-min Rain = 0
KCL2 130342Z 15009KT 06/M05 A3028 RMK A01 T00591054  RH  044%=      5-min Rain = 0
KCL2 130343Z 15008KT 06/M05 A3028 RMK A01 T00591054  RH  044%=      5-min Rain = 0
KCL2 130344Z 16008KT 06/M05 A3028 RMK A01 T00581053  RH  045%=      5-min Rain = 0
KCL2 130345Z 16008KT 06/M05 A3028 RMK A01 T00571053  RH  045%=      5-min Rain = 0
KCL2 130346Z 16007KT 06/M05 A3028 RMK A01 T00571052  RH  045%=      5-min Rain = 0
KCL2 130347Z 16008KT 06/M05 A3028 RMK A01 T00561052  RH  046%=      5-min Rain = 0
KCL2 130348Z 16008KT 06/M05 A3028 RMK A01 T00571052  RH  046%=      5-min Rain = 0
KCL2 130349Z 16008KT 06/M05 A3028 RMK A01 T00561052  RH  046%=      5-min Rain = 0
KCL2 130350Z 17008KT 06/M05 A3028 RMK A01 T00561051  RH  046%=      5-min Rain = 0
KCL2 130351Z 17008KT 06/M05 A3028 RMK A01 T00561052  RH  046%=      5-min Rain = 0
KCL2 130352Z 16007KT 06/M05 A3028 RMK A01 T00561051  RH  046%=      5-min Rain = 0
KCL2 130353Z 16007KT 06/M05 A3028 RMK A01 T00551050  RH  047%=      5-min Rain = 0
KCL2 130354Z 16007KT 05/M05 A3028 RMK A01 T00541050  RH  047%=      5-min Rain = 0
KCL2 130355Z 17007KT 05/M05 A3028 RMK A01 T00541050  RH  047%=      5-min Rain = 0
KCL2 130356Z 16007KT 05/M05 A3029 RMK A01 T00531049  RH  048%=      5-min Rain = 0
KCL2 130357Z 16007KT 05/M05 A3029 RMK A01 T00521049  RH  048%=      5-min Rain = 0
KCL2 130358Z 17007KT 05/M05 A3029 RMK A01 T00511049  RH  048%=      5-min Rain = 0
KCL2 130359Z 16007KT 05/M05 A3029 RMK A01 T00511048  RH  049%=      5-min Rain = 0
KCL2 130400Z 16007KT 05/M05 A3029 RMK A01 T00501048  RH  049%=      5-min Rain = 0
KCL2 130401Z 16007KT 05/M05 A3029 RMK A01 T00501047  RH  049%=      5-min Rain = 0
KCL2 130402Z 16007KT 05/M05 A3029 RMK A01 T00491048  RH  050%=      5-min Rain = 0
KCL2 130403Z 16007KT 05/M05 A3029 RMK A01 T00491047  RH  050%=      5-min Rain = 0
KCL2 130404Z 16007KT 05/M05 A3029 RMK A01 T00491047  RH  050%=      5-min Rain = 0
KCL2 130405Z 16007KT 05/M05 A3029 RMK A01 T00491046  RH  050%=      5-min Rain = 0
KCL2 130406Z 17007KT 05/M05 A3029 RMK A01 T00481046  RH  050%=      5-min Rain = 0
KCL2 130407Z 16007KT 05/M05 A3029 RMK A01 T00481046  RH  051%=      5-min Rain = 0
KCL2 130408Z 16007KT 05/M05 A3029 RMK A01 T00461046  RH  051%=      5-min Rain = 0
KCL2 130409Z 17008KT 05/M05 A3029 RMK A01 T00461046  RH  052%=      5-min Rain = 0
KCL2 130410Z 17007KT 05/M05 A3029 RMK A01 T00451046  RH  052%=      5-min Rain = 0
KCL2 130411Z 17007KT 05/M05 A3029 RMK A01 T00451046  RH  052%=      5-min Rain = 0
KCL2 130412Z 17007KT 05/M05 A3029 RMK A01 T00451046  RH  052%=      5-min Rain = 0
KCL2 130413Z 17007KT 05/M05 A3029 RMK A01 T00451045  RH  052%=      5-min Rain = 0
KCL2 130414Z 17007KT 05/M05 A3029 RMK A01 T00451045  RH  052%=      5-min Rain = 0
KCL2 130415Z 17007KT 04/M05 A3029 RMK A01 T00441045  RH  052%=      5-min Rain = 0
KCL2 130416Z 17007KT 04/M05 A3029 RMK A01 T00441045  RH  053%=      5-min Rain = 0
KCL2 130417Z 17007KT 04/M05 A3029 RMK A01 T00431045  RH  053%=      5-min Rain = 0
KCL2 130418Z 17007KT 04/M05 A3029 RMK A01 T00431045  RH  053%=      5-min Rain = 0
KCL2 130419Z 17007KT 04/M05 A3029 RMK A01 T00431045  RH  053%=      5-min Rain = 0
KCL2 130420Z 17007KT 04/M05 A3029 RMK A01 T00421045  RH  053%=      5-min Rain = 0
KCL2 130421Z 17006KT 04/M05 A3029 RMK A01 T00421045  RH  053%=      5-min Rain = 0
KCL2 130422Z 17006KT 04/M05 A3029 RMK A01 T00421045  RH  053%=      5-min Rain = 0
KCL2 130423Z 17007KT 04/M05 A3029 RMK A01 T00421045  RH  053%=      5-min Rain = 0
KCL2 130424Z 16007KT 04/M05 A3029 RMK A01 T00421045  RH  053%=      5-min Rain = 0
KCL2 130425Z 16007KT 04/M05 A3029 RMK A01 T00421045  RH  053%=      5-min Rain = 0
KCL2 130426Z 16007KT 04/M05 A3029 RMK A01 T00421045  RH  053%=      5-min Rain = 0
KCL2 130427Z 16007KT 04/M05 A3029 RMK A01 T00421046  RH  053%=      5-min Rain = 0
KCL2 130428Z 16007KT 04/M05 A3029 RMK A01 T00421046  RH  053%=      5-min Rain = 0
KCL2 130429Z 16007KT 04/M05 A3029 RMK A01 T00421047  RH  053%=      5-min Rain = 0
KCL2 130430Z 16007KT 04/M05 A3029 RMK A01 T00421047  RH  053%=      5-min Rain = 0
KCL2 130431Z 16007KT 04/M05 A3029 RMK A01 T00421047  RH  052%=      5-min Rain = 0
KCL2 130432Z 16007KT 04/M05 A3029 RMK A01 T00421048  RH  052%=      5-min Rain = 0
KCL2 130433Z 16007KT 04/M05 A3029 RMK A01 T00421048  RH  052%=      5-min Rain = 0
KCL2 130434Z 16007KT 04/M05 A3029 RMK A01 T00421047  RH  052%=      5-min Rain = 0
KCL2 130435Z 16007KT 04/M05 A3029 RMK A01 T00421047  RH  052%=      5-min Rain = 0
KCL2 130436Z 17007KT 04/M05 A3029 RMK A01 T00421048  RH  052%=      5-min Rain = 0
KCL2 130437Z 17007KT 04/M05 A3029 RMK A01 T00421048  RH  052%=      5-min Rain = 0
KCL2 130438Z 17007KT 04/M05 A3029 RMK A01 T00421048  RH  052%=      5-min Rain = 0
KCL2 130439Z 16007KT 04/M05 A3029 RMK A01 T00421048  RH  052%=      5-min Rain = 0
KCL2 130440Z 16007KT 04/M05 A3029 RMK A01 T00421047  RH  052%=      5-min Rain = 0
KCL2 130441Z 16007KT 04/M05 A3029 RMK A01 T00421048  RH  052%=      5-min Rain = 0
KCL2 130442Z 16007KT 04/M05 A3029 RMK A01 T00421048  RH  052%=      5-min Rain = 0
KCL2 130443Z 16008KT 04/M05 A3029 RMK A01 T00421048  RH  052%=      5-min Rain = 0
KCL2 130444Z 16008KT 04/M05 A3029 RMK A01 T00421049  RH  052%=      5-min Rain = 0
KCL2 130445Z 16007KT 04/M05 A3029 RMK A01 T00421049  RH  052%=      5-min Rain = 0
KCL2 130446Z 16007KT 04/M05 A3029 RMK A01 T00421049  RH  052%=      5-min Rain = 0
KCL2 130447Z 16008KT 04/M05 A3029 RMK A01 T00431049  RH  051%=      5-min Rain = 0
KCL2 130448Z 16008KT 04/M05 A3029 RMK A01 T00431049  RH  051%=      5-min Rain = 0
KCL2 130449Z 16007KT 04/M05 A3029 RMK A01 T00431049  RH  051%=      5-min Rain = 0
KCL2 130450Z 16007KT 04/M05 A3029 RMK A01 T00431050  RH  051%=      5-min Rain = 0
KCL2 130451Z 16008KT 04/M05 A3029 RMK A01 T00441050  RH  051%=      5-min Rain = 0
KCL2 130452Z 16008KT 05/M05 A3029 RMK A01 T00451050  RH  050%=      5-min Rain = 0
KCL2 130453Z 16008KT 05/M05 A3029 RMK A01 T00451050  RH  050%=      5-min Rain = 0
KCL2 130454Z 16008KT 05/M05 A3029 RMK A01 T00451050  RH  050%=      5-min Rain = 0
KCL2 130455Z 16008KT 05/M05 A3029 RMK A01 T00451050  RH  050%=      5-min Rain = 0
KCL2 130456Z 16008KT 05/M05 A3029 RMK A01 T00451050  RH  050%=      5-min Rain = 0
KCL2 130457Z 16007KT 05/M05 A3029 RMK A01 T00451049  RH  050%=      5-min Rain = 0
KCL2 130458Z 16007KT 05/M05 A3029 RMK A01 T00451049  RH  050%=      5-min Rain = 0
KCL2 130459Z 16007KT 05/M05 A3029 RMK A01 T00451049  RH  050%=      5-min Rain = 0
KCL2 130500Z 16007KT 05/M05 A3029 RMK A01 T00451049  RH  051%=      5-min Rain = 0
KCL2 130501Z 16008KT 04/M05 A3029 RMK A01 T00441049  RH  051%=      5-min Rain = 0
KCL2 130502Z 16007KT 05/M05 A3028 RMK A01 T00451049  RH  050%=      5-min Rain = 0
KCL2 130503Z 16007KT 05/M05 A3028 RMK A01 T00451050  RH  050%=      5-min Rain = 0
KCL2 130504Z 16008KT 05/M05 A3028 RMK A01 T00451049  RH  050%=      5-min Rain = 0
KCL2 130505Z 16008KT 05/M05 A3028 RMK A01 T00451050  RH  050%=      5-min Rain = 0
KCL2 130506Z 16007KT 05/M05 A3028 RMK A01 T00451050  RH  050%=      5-min Rain = 0
KCL2 130507Z 16007KT 05/M05 A3028 RMK A01 T00451049  RH  051%=      5-min Rain = 0
KCL2 130508Z 16008KT 04/M05 A3028 RMK A01 T00441049  RH  051%=      5-min Rain = 0
KCL2 130509Z 16008KT 04/M05 A3028 RMK A01 T00441050  RH  051%=      5-min Rain = 0
KCL2 130510Z 16007KT 04/M05 A3028 RMK A01 T00441049  RH  051%=      5-min Rain = 0
KCL2 130511Z 16008KT 04/M05 A3028 RMK A01 T00441049  RH  051%=      5-min Rain = 0
KCL2 130512Z 17007KT 04/M05 A3028 RMK A01 T00441049  RH  051%=      5-min Rain = 0
KCL2 130513Z 16007KT 04/M05 A3028 RMK A01 T00441048  RH  051%=      5-min Rain = 0
KCL2 130514Z 16007KT 04/M05 A3028 RMK A01 T00441049  RH  051%=      5-min Rain = 0
KCL2 130515Z 16007KT 04/M05 A3028 RMK A01 T00441048  RH  051%=      5-min Rain = 0
KCL2 130516Z 16007KT 04/M05 A3028 RMK A01 T00431049  RH  051%=      5-min Rain = 0
KCL2 130517Z 16007KT 04/M05 A3028 RMK A01 T00431049  RH  051%=      5-min Rain = 0
KCL2 130518Z 16007KT 04/M05 A3028 RMK A01 T00421049  RH  051%=      5-min Rain = 0
KCL2 130519Z 16008KT 04/M05 A3028 RMK A01 T00421049  RH  051%=      5-min Rain = 0
KCL2 130520Z 16008KT 04/M05 A3028 RMK A01 T00421049  RH  051%=      5-min Rain = 0
KCL2 130521Z 16008KT 04/M05 A3028 RMK A01 T00421050  RH  051%=      5-min Rain = 0
KCL2 130522Z 16008KT 04/M05 A3028 RMK A01 T00421049  RH  051%=      5-min Rain = 0
KCL2 130523Z 16008KT 04/M05 A3028 RMK A01 T00421049  RH  051%=      5-min Rain = 0
KCL2 130524Z 16009KT 04/M05 A3028 RMK A01 T00431049  RH  051%=      5-min Rain = 0
KCL2 130525Z 16009KT 04/M05 A3028 RMK A01 T00431049  RH  051%=      5-min Rain = 0
KCL2 130526Z 16009KT 04/M05 A3028 RMK A01 T00431049  RH  051%=      5-min Rain = 0
KCL2 130527Z 16008KT 04/M05 A3028 RMK A01 T00431049  RH  051%=      5-min Rain = 0
KCL2 130528Z 16008KT 04/M05 A3028 RMK A01 T00441049  RH  051%=      5-min Rain = 0
KCL2 130529Z 16008KT 04/M05 A3028 RMK A01 T00441049  RH  051%=      5-min Rain = 0
KCL2 130530Z 16008KT 05/M05 A3028 RMK A01 T00451049  RH  050%=      5-min Rain = 0
KCL2 130531Z 16007KT 05/M05 A3028 RMK A01 T00461049  RH  050%=      5-min Rain = 0
KCL2 130532Z 16008KT 05/M05 A3028 RMK A01 T00461049  RH  050%=      5-min Rain = 0
KCL2 130533Z 16008KT 05/M05 A3028 RMK A01 T00451049  RH  050%=      5-min Rain = 0
KCL2 130534Z 16007KT 05/M05 A3028 RMK A01 T00451049  RH  050%=      5-min Rain = 0
KCL2 130535Z 16008KT 04/M05 A3028 RMK A01 T00441049  RH  051%=      5-min Rain = 0
KCL2 130536Z 16008KT 04/M05 A3028 RMK A01 T00441049  RH  051%=      5-min Rain = 0
KCL2 130537Z 16008KT 04/M05 A3028 RMK A01 T00431049  RH  051%=      5-min Rain = 0
KCL2 130538Z 16008KT 04/M05 A3028 RMK A01 T00431049  RH  051%=      5-min Rain = 0
KCL2 130539Z 16008KT 04/M05 A3028 RMK A01 T00421049  RH  052%=      5-min Rain = 0
KCL2 130540Z 16008KT 04/M05 A3028 RMK A01 T00411049  RH  052%=      5-min Rain = 0
KCL2 130541Z 16008KT 04/M05 A3028 RMK A01 T00411049  RH  052%=      5-min Rain = 0
KCL2 130542Z 16008KT 04/M05 A3028 RMK A01 T00411049  RH  052%=      5-min Rain = 0
KCL2 130543Z 15008KT 04/M05 A3028 RMK A01 T00411049  RH  052%=      5-min Rain = 0
KCL2 130544Z 16009KT 04/M05 A3028 RMK A01 T00411049  RH  052%=      5-min Rain = 0
KCL2 130545Z 16009KT 04/M05 A3028 RMK A01 T00411049  RH  052%=      5-min Rain = 0
KCL2 130546Z 16009KT 04/M05 A3028 RMK A01 T00421049  RH  051%=      5-min Rain = 0
KCL2 130547Z 15008KT 04/M05 A3028 RMK A01 T00431049  RH  051%=      5-min Rain = 0
KCL2 130548Z 16008KT 04/M05 A3028 RMK A01 T00441049  RH  051%=      5-min Rain = 0
KCL2 130549Z 15008KT 05/M05 A3028 RMK A01 T00451049  RH  050%=      5-min Rain = 0
KCL2 130550Z 15008KT 05/M05 A3028 RMK A01 T00451049  RH  050%=      5-min Rain = 0
KCL2 130551Z 16008KT 05/M05 A3028 RMK A01 T00451049  RH  050%=      5-min Rain = 0
KCL2 130552Z 16009KT 05/M05 A3028 RMK A01 T00451050  RH  050%=      5-min Rain = 0
KCL2 130553Z 16008KT 05/M05 A3028 RMK A01 T00451049  RH  050%=      5-min Rain = 0
KCL2 130554Z 16008KT 05/M05 A3028 RMK A01 T00451049  RH  050%=      5-min Rain = 0
KCL2 130555Z 16009KT 04/M05 A3028 RMK A01 T00441050  RH  050%=      5-min Rain = 0
KCL2 130556Z 17008KT 05/M05 A3028 RMK A01 T00451050  RH  050%=      5-min Rain = 0
KCL2 130557Z 17008KT 04/M05 A3028 RMK A01 T00441050  RH  050%=      5-min Rain = 0
KCL2 130558Z 17008KT 04/M05 A3027 RMK A01 T00441049  RH  051%=      5-min Rain = 0
KCL2 130559Z 17008KT 04/M05 A3027 RMK A01 T00431050  RH  051%=      5-min Rain = 0

Page generated in 0.0717 seconds.